Time,TemperatureF,DewpointF,PressureIn,WindDirection,WindDirectionDegrees,WindSpeedMPH,WindSpeedGustMPH,Humidity,HourlyPrecipIn,Conditions,Clouds,dailyrainin,SoftwareType,DateUTC
2013-06-14 00:03:00,70.9,65.4,29.99,ENE,68,0.9,1.1,83,0.00,,,0.00,WUHU216HW,2013-06-14 05:03:00,
2013-06-14 00:08:00,70.9,65.2,29.99,East,90,0.0,1.1,82,0.00,,,0.00,WUHU216HW,2013-06-14 05:08:00,
2013-06-14 00:13:00,70.7,64.3,29.99,East,90,0.0,0.2,80,0.00,,,0.00,WUHU216HW,2013-06-14 05:13:00,
2013-06-14 00:18:00,70.6,64.8,29.99,ENE,68,0.0,0.4,82,0.00,,,0.00,WUHU216HW,2013-06-14 05:18:00,
2013-06-14 00:23:00,70.6,65.1,29.99,ENE,68,0.4,0.4,83,0.00,,,0.00,WUHU216HW,2013-06-14 05:23:00,
2013-06-14 00:28:00,70.6,64.8,29.99,East,90,0.9,0.9,82,0.00,,,0.00,WUHU216HW,2013-06-14 05:28:00,
2013-06-14 00:33:00,70.4,64.6,29.99,East,90,0.0,0.9,82,0.00,,,0.00,WUHU216HW,2013-06-14 05:33:00,
2013-06-14 00:38:00,70.6,65.4,29.99,East,90,2.2,2.2,84,0.00,,,0.00,WUHU216HW,2013-06-14 05:38:00,
2013-06-14 00:41:00,70.7,65.6,29.99,ESE,113,0.4,2.2,84,0.00,,,0.00,WUHU216HW,2013-06-14 05:41:00,
2013-06-14 00:43:00,70.6,65.4,29.99,East,90,2.2,2.2,84,0.00,,,0.00,WUHU216HW,2013-06-14 05:43:00,
2013-06-14 00:46:00,71.1,66.0,29.99,ENE,68,2.7,2.7,84,0.00,,,0.00,WUHU216HW,2013-06-14 05:46:00,
2013-06-14 00:48:00,71.1,66.0,29.99,SE,135,1.6,2.7,84,0.00,,,0.00,WUHU216HW,2013-06-14 05:48:00,
2013-06-14 00:50:00,71.3,65.8,29.99,SE,135,2.0,2.7,83,0.00,,,0.00,WUHU216HW,2013-06-14 05:50:00,
2013-06-14 00:51:00,71.5,66.0,29.99,SE,135,2.2,2.7,83,0.00,,,0.00,WUHU216HW,2013-06-14 05:51:00,
2013-06-14 00:52:00,71.6,66.2,29.99,SE,135,2.9,2.9,83,0.00,,,0.00,WUHU216HW,2013-06-14 05:52:00,
2013-06-14 00:53:00,71.1,66.0,29.99,ENE,68,2.7,2.7,84,0.00,,,0.00,WUHU216HW,2013-06-14 05:53:00,
2013-06-14 00:54:00,71.6,65.9,29.99,SE,135,1.8,2.9,82,0.00,,,0.00,WUHU216HW,2013-06-14 05:54:00,
2013-06-14 00:56:00,71.6,65.9,29.99,SE,135,2.9,2.9,82,0.00,,,0.00,WUHU216HW,2013-06-14 05:56:00,
2013-06-14 00:58:00,71.6,65.9,29.99,SE,135,2.9,2.9,82,0.00,,,0.00,WUHU216HW,2013-06-14 05:58:00,
2013-06-14 00:59:00,71.6,65.9,29.99,SE,135,2.9,2.9,82,0.00,,,0.00,WUHU216HW,2013-06-14 05:59:00,
2013-06-14 01:01:00,71.6,65.9,29.99,SE,135,2.7,3.6,82,0.00,,,0.00,WUHU216HW,2013-06-14 06:01:00,
2013-06-14 01:03:00,71.6,65.9,29.99,SE,135,3.8,3.8,82,0.00,,,0.00,WUHU216HW,2013-06-14 06:03:00,
2013-06-14 01:04:00,71.6,65.9,29.99,SE,135,3.8,3.8,82,0.00,,,0.00,WUHU216HW,2013-06-14 06:04:00,
2013-06-14 01:07:00,71.6,65.9,29.99,SE,135,3.8,3.8,82,0.00,,,0.00,WUHU216HW,2013-06-14 06:07:00,
2013-06-14 01:09:00,71.5,65.7,29.98,SSE,158,3.4,3.8,82,0.00,,,0.00,WUHU216HW,2013-06-14 06:09:00,
2013-06-14 01:11:00,71.1,65.6,29.98,SSE,158,2.0,3.8,83,0.00,,,0.00,WUHU216HW,2013-06-14 06:11:00,
2013-06-14 01:12:00,70.9,65.4,29.98,SSE,158,1.8,3.8,83,0.00,,,0.00,WUHU216HW,2013-06-14 06:12:00,
2013-06-14 01:14:00,70.9,65.8,29.98,SE,135,1.8,3.8,84,0.00,,,0.00,WUHU216HW,2013-06-14 06:14:00,
2013-06-14 01:15:00,70.7,65.6,29.98,SE,135,1.3,3.8,84,0.00,,,0.00,WUHU216HW,2013-06-14 06:15:00,
2013-06-14 01:17:00,70.7,65.6,29.98,SE,135,2.2,3.4,84,0.00,,,0.00,WUHU216HW,2013-06-14 06:17:00,
2013-06-14 01:19:00,70.7,65.6,29.98,SE,135,2.5,2.5,84,0.00,,,0.00,WUHU216HW,2013-06-14 06:19:00,
2013-06-14 01:20:00,70.6,65.4,29.98,SE,135,1.6,2.5,84,0.00,,,0.00,WUHU216HW,2013-06-14 06:20:00,
2013-06-14 01:21:00,70.6,65.4,29.98,SE,135,1.1,2.5,84,0.00,,,0.00,WUHU216HW,2013-06-14 06:21:00,
2013-06-14 01:23:00,70.6,65.4,29.98,ESE,113,1.8,2.5,84,0.00,,,0.00,WUHU216HW,2013-06-14 06:23:00,
2013-06-14 01:24:00,70.6,65.4,29.98,SE,135,1.3,2.5,84,0.00,,,0.00,WUHU216HW,2013-06-14 06:24:00,
2013-06-14 01:26:00,70.6,65.4,29.98,ESE,113,1.8,2.5,84,0.00,,,0.00,WUHU216HW,2013-06-14 06:26:00,
2013-06-14 01:29:00,70.4,65.3,29.98,SE,135,1.1,1.8,84,0.00,,,0.00,WUHU216HW,2013-06-14 06:29:00,
2013-06-14 01:30:00,70.4,65.3,29.98,SE,135,1.3,1.8,84,0.00,,,0.00,WUHU216HW,2013-06-14 06:30:00,
2013-06-14 01:32:00,70.6,65.4,29.98,SE,135,1.8,1.8,84,0.00,,,0.00,WUHU216HW,2013-06-14 06:32:00,
2013-06-14 01:33:00,70.6,65.4,29.98,SE,135,2.0,2.0,84,0.00,,,0.00,WUHU216HW,2013-06-14 06:33:00,
2013-06-14 01:34:00,70.6,65.4,29.98,SE,135,2.0,2.0,84,0.00,,,0.00,WUHU216HW,2013-06-14 06:34:00,
2013-06-14 01:36:00,70.7,65.6,29.98,SE,135,1.6,2.0,84,0.00,,,0.00,WUHU216HW,2013-06-14 06:36:00,
2013-06-14 01:37:00,70.7,65.6,29.98,SE,135,1.8,2.0,84,0.00,,,0.00,WUHU216HW,2013-06-14 06:37:00,
2013-06-14 01:38:00,70.7,65.6,29.98,SE,135,3.4,3.4,84,0.00,,,0.00,WUHU216HW,2013-06-14 06:38:00,
2013-06-14 01:39:00,70.7,65.6,29.98,SE,135,3.4,3.4,84,0.00,,,0.00,WUHU216HW,2013-06-14 06:39:00,
2013-06-14 01:40:00,70.7,65.6,29.98,SE,135,2.2,3.4,84,0.00,,,0.00,WUHU216HW,2013-06-14 06:40:00,
2013-06-14 01:42:00,70.7,65.6,29.98,SE,135,2.2,3.4,84,0.00,,,0.00,WUHU216HW,2013-06-14 06:42:00,
2013-06-14 01:43:00,70.9,65.8,29.98,SE,135,2.5,3.4,84,0.00,,,0.00,WUHU216HW,2013-06-14 06:43:00,
2013-06-14 01:44:00,70.9,65.8,29.98,SE,135,2.5,3.4,84,0.00,,,0.00,WUHU216HW,2013-06-14 06:44:00,
2013-06-14 01:45:00,70.9,65.8,29.98,SE,135,2.5,3.4,84,0.00,,,0.00,WUHU216HW,2013-06-14 06:45:00,
2013-06-14 01:49:00,70.9,65.8,29.98,SSE,158,2.7,2.9,84,0.00,,,0.00,WUHU216HW,2013-06-14 06:49:00,
2013-06-14 01:50:00,70.7,65.6,29.98,SSE,158,2.2,2.9,84,0.00,,,0.00,WUHU216HW,2013-06-14 06:50:00,
2013-06-14 01:51:00,70.7,65.6,29.98,SSE,158,2.5,2.9,84,0.00,,,0.00,WUHU216HW,2013-06-14 06:51:00,
2013-06-14 01:53:00,70.7,65.6,29.98,South,180,2.7,2.9,84,0.00,,,0.00,WUHU216HW,2013-06-14 06:53:00,
2013-06-14 01:54:00,70.6,65.4,29.98,SSE,158,2.9,2.9,84,0.00,,,0.00,WUHU216HW,2013-06-14 06:54:00,
2013-06-14 01:56:00,70.6,65.4,29.98,SSE,158,2.0,2.9,84,0.00,,,0.00,WUHU216HW,2013-06-14 06:56:00,
2013-06-14 01:58:00,70.6,65.4,29.98,SSE,158,1.6,2.9,84,0.00,,,0.00,WUHU216HW,2013-06-14 06:58:00,
2013-06-14 01:59:00,70.6,65.4,29.98,SSE,158,2.5,2.9,84,0.00,,,0.00,WUHU216HW,2013-06-14 06:59:00,
2013-06-14 02:00:00,70.6,65.4,29.98,SSE,158,2.5,2.9,84,0.00,,,0.00,WUHU216HW,2013-06-14 07:00:00,
2013-06-14 02:02:00,70.6,65.4,29.98,SSE,158,2.0,2.9,84,0.00,,,0.00,WUHU216HW,2013-06-14 07:02:00,
2013-06-14 02:04:00,70.6,65.4,29.98,SSE,158,2.0,2.7,84,0.00,,,0.00,WUHU216HW,2013-06-14 07:04:00,
2013-06-14 02:05:00,70.6,65.4,29.98,SSE,158,2.0,2.7,84,0.00,,,0.00,WUHU216HW,2013-06-14 07:05:00,
2013-06-14 02:07:00,70.4,65.3,29.98,SSE,158,2.5,2.5,84,0.00,,,0.00,WUHU216HW,2013-06-14 07:07:00,
2013-06-14 02:09:00,70.4,65.3,29.97,South,180,2.5,2.5,84,0.00,,,0.00,WUHU216HW,2013-06-14 07:09:00,
2013-06-14 02:10:00,70.4,65.3,29.97,South,180,2.5,2.5,84,0.00,,,0.00,WUHU216HW,2013-06-14 07:10:00,
2013-06-14 02:15:00,70.2,65.1,29.97,SSE,158,2.0,2.7,84,0.00,,,0.00,WUHU216HW,2013-06-14 07:15:00,
2013-06-14 02:20:00,70.4,65.3,29.97,South,180,2.5,2.5,84,0.00,,,0.00,WUHU216HW,2013-06-14 07:20:00,
2013-06-14 02:25:00,70.6,65.4,29.97,SSE,158,2.0,2.9,84,0.00,,,0.00,WUHU216HW,2013-06-14 07:25:00,
2013-06-14 02:30:00,70.6,65.4,29.97,SSE,158,2.2,2.9,84,0.00,,,0.00,WUHU216HW,2013-06-14 07:30:00,
2013-06-14 02:35:00,70.2,65.1,29.97,SE,135,1.1,2.5,84,0.00,,,0.00,WUHU216HW,2013-06-14 07:35:00,
2013-06-14 02:40:00,70.2,65.1,29.97,ESE,113,2.2,2.2,84,0.00,,,0.00,WUHU216HW,2013-06-14 07:40:00,
2013-06-14 02:44:00,70.2,65.1,29.97,ESE,113,1.1,2.2,84,0.00,,,0.00,WUHU216HW,2013-06-14 07:44:00,
2013-06-14 02:45:00,70.2,65.1,29.97,ESE,113,1.1,2.2,84,0.00,,,0.00,WUHU216HW,2013-06-14 07:45:00,
2013-06-14 02:47:00,70.0,64.9,29.97,East,90,0.4,2.2,84,0.00,,,0.00,WUHU216HW,2013-06-14 07:47:00,
2013-06-14 02:48:00,69.8,64.7,29.97,East,90,0.0,2.2,84,0.00,,,0.00,WUHU216HW,2013-06-14 07:48:00,
2013-06-14 02:49:00,69.8,64.7,29.97,ESE,113,0.2,2.0,84,0.00,,,0.00,WUHU216HW,2013-06-14 07:49:00,
2013-06-14 02:50:00,70.2,65.1,29.97,ESE,113,1.1,2.2,84,0.00,,,0.00,WUHU216HW,2013-06-14 07:50:00,
2013-06-14 02:51:00,69.8,64.7,29.97,SE,135,0.2,2.0,84,0.00,,,0.00,WUHU216HW,2013-06-14 07:51:00,
2013-06-14 02:52:00,69.8,64.7,29.96,SE,135,0.2,2.0,84,0.00,,,0.00,WUHU216HW,2013-06-14 07:52:00,
2013-06-14 02:54:00,69.8,64.7,29.97,ENE,68,0.2,1.1,84,0.00,,,0.00,WUHU216HW,2013-06-14 07:54:00,
2013-06-14 02:55:00,69.8,64.7,29.97,East,90,0.0,2.2,84,0.00,,,0.00,WUHU216HW,2013-06-14 07:55:00,
2013-06-14 02:57:00,69.8,65.1,29.97,ESE,113,0.7,1.1,85,0.00,,,0.00,WUHU216HW,2013-06-14 07:57:00,
2013-06-14 02:59:00,69.8,65.1,29.97,East,90,1.8,1.8,85,0.00,,,0.00,WUHU216HW,2013-06-14 07:59:00,
2013-06-14 03:00:00,69.8,65.1,29.97,ENE,68,1.1,1.8,85,0.00,,,0.00,WUHU216HW,2013-06-14 08:00:00,
2013-06-14 03:01:00,69.8,65.1,29.97,ENE,68,1.1,1.8,85,0.00,,,0.00,WUHU216HW,2013-06-14 08:01:00,
2013-06-14 03:03:00,69.8,65.1,29.97,ENE,68,1.1,1.8,85,0.00,,,0.00,WUHU216HW,2013-06-14 08:03:00,
2013-06-14 03:05:00,70.2,65.4,29.97,ESE,113,1.3,1.8,85,0.00,,,0.00,WUHU216HW,2013-06-14 08:05:00,
2013-06-14 03:07:00,70.4,65.3,29.97,East,90,1.8,1.8,84,0.00,,,0.00,WUHU216HW,2013-06-14 08:07:00,
2013-06-14 03:08:00,70.4,65.3,29.97,ESE,113,2.5,2.5,84,0.00,,,0.00,WUHU216HW,2013-06-14 08:08:00,
2013-06-14 03:09:00,70.4,65.3,29.97,ESE,113,1.1,2.5,84,0.00,,,0.00,WUHU216HW,2013-06-14 08:09:00,
2013-06-14 03:10:00,70.4,65.3,29.97,ESE,113,1.1,2.5,84,0.00,,,0.00,WUHU216HW,2013-06-14 08:10:00,
2013-06-14 03:11:00,70.4,65.3,29.97,SE,135,0.4,2.5,84,0.00,,,0.00,WUHU216HW,2013-06-14 08:11:00,
2013-06-14 03:12:00,70.6,65.4,29.97,East,90,1.1,2.5,84,0.00,,,0.00,WUHU216HW,2013-06-14 08:12:00,
2013-06-14 03:14:00,70.4,65.3,29.97,East,90,1.8,2.5,84,0.00,,,0.00,WUHU216HW,2013-06-14 08:14:00,
2013-06-14 03:15:00,70.6,65.4,29.97,East,90,1.1,2.5,84,0.00,,,0.00,WUHU216HW,2013-06-14 08:15:00,
2013-06-14 03:18:00,70.6,65.4,29.97,ENE,68,2.5,2.5,84,0.00,,,0.00,WUHU216HW,2013-06-14 08:18:00,
2013-06-14 03:19:00,70.6,65.4,29.97,ENE,68,2.7,2.7,84,0.00,,,0.00,WUHU216HW,2013-06-14 08:19:00,
2013-06-14 03:20:00,70.6,65.4,29.97,ENE,68,2.7,2.7,84,0.00,,,0.00,WUHU216HW,2013-06-14 08:20:00,
2013-06-14 03:21:00,70.6,65.4,29.97,East,90,1.8,2.9,84,0.00,,,0.00,WUHU216HW,2013-06-14 08:21:00,
2013-06-14 03:24:00,70.6,65.4,29.97,East,90,1.8,2.9,84,0.00,,,0.00,WUHU216HW,2013-06-14 08:24:00,
2013-06-14 03:25:00,70.6,65.4,29.98,East,90,1.8,2.9,84,0.00,,,0.00,WUHU216HW,2013-06-14 08:25:00,
2013-06-14 03:26:00,70.6,65.4,29.98,East,90,1.8,2.9,84,0.00,,,0.00,WUHU216HW,2013-06-14 08:26:00,
2013-06-14 03:28:00,70.6,65.4,29.98,East,90,2.2,3.8,84,0.00,,,0.00,WUHU216HW,2013-06-14 08:28:00,
2013-06-14 03:30:00,70.6,65.4,29.98,East,90,1.8,3.8,84,0.00,,,0.00,WUHU216HW,2013-06-14 08:30:00,
2013-06-14 03:31:00,70.6,65.4,29.98,East,90,1.8,3.8,84,0.00,,,0.00,WUHU216HW,2013-06-14 08:31:00,
2013-06-14 03:32:00,70.7,65.6,29.98,ENE,68,1.1,3.8,84,0.00,,,0.00,WUHU216HW,2013-06-14 08:32:00,
2013-06-14 03:33:00,70.6,65.4,29.98,East,90,2.0,3.8,84,0.00,,,0.00,WUHU216HW,2013-06-14 08:33:00,
2013-06-14 03:34:00,70.6,65.4,29.97,East,90,3.4,3.8,84,0.00,,,0.00,WUHU216HW,2013-06-14 08:34:00,
2013-06-14 03:36:00,70.7,65.6,29.98,East,90,1.6,3.8,84,0.00,,,0.00,WUHU216HW,2013-06-14 08:36:00,
2013-06-14 03:37:00,70.7,65.6,29.98,East,90,1.1,3.6,84,0.00,,,0.00,WUHU216HW,2013-06-14 08:37:00,
2013-06-14 03:38:00,70.7,65.6,29.98,ESE,113,1.1,3.6,84,0.00,,,0.00,WUHU216HW,2013-06-14 08:38:00,
2013-06-14 03:39:00,70.7,65.6,29.98,ESE,113,1.3,3.4,84,0.00,,,0.00,WUHU216HW,2013-06-14 08:39:00,
2013-06-14 03:41:00,70.6,65.4,29.98,East,90,1.6,3.4,84,0.00,,,0.00,WUHU216HW,2013-06-14 08:41:00,
2013-06-14 03:42:00,70.6,65.4,29.97,East,90,4.3,4.3,84,0.00,,,0.00,WUHU216HW,2013-06-14 08:42:00,
2013-06-14 03:43:00,70.6,65.4,29.98,East,90,2.5,4.3,84,0.00,,,0.00,WUHU216HW,2013-06-14 08:43:00,
2013-06-14 03:45:00,70.6,65.4,29.98,East,90,3.4,4.3,84,0.00,,,0.00,WUHU216HW,2013-06-14 08:45:00,
2013-06-14 03:46:00,70.7,65.6,29.98,ESE,113,1.1,3.6,84,0.00,,,0.00,WUHU216HW,2013-06-14 08:46:00,
2013-06-14 03:48:00,70.6,65.4,29.98,East,90,1.6,4.3,84,0.00,,,0.00,WUHU216HW,2013-06-14 08:48:00,
2013-06-14 03:50:00,70.6,65.4,29.98,ESE,113,2.5,4.3,84,0.00,,,0.00,WUHU216HW,2013-06-14 08:50:00,
2013-06-14 03:51:00,70.6,65.4,29.98,ESE,113,2.5,4.3,84,0.00,,,0.00,WUHU216HW,2013-06-14 08:51:00,
2013-06-14 03:53:00,70.6,65.4,29.98,NE,45,0.9,3.8,84,0.00,,,0.00,WUHU216HW,2013-06-14 08:53:00,
2013-06-14 03:54:00,70.6,65.4,29.98,East,90,1.1,3.8,84,0.00,,,0.00,WUHU216HW,2013-06-14 08:54:00,
2013-06-14 03:56:00,70.6,65.4,29.98,East,90,2.2,3.8,84,0.00,,,0.00,WUHU216HW,2013-06-14 08:56:00,
2013-06-14 03:58:00,70.6,65.4,29.98,ESE,113,1.8,3.4,84,0.00,,,0.00,WUHU216HW,2013-06-14 08:58:00,
2013-06-14 04:00:00,70.6,65.4,29.98,East,90,2.7,2.7,84,0.00,,,0.00,WUHU216HW,2013-06-14 09:00:00,
2013-06-14 04:01:00,70.6,65.4,29.98,East,90,2.7,2.7,84,0.00,,,0.00,WUHU216HW,2013-06-14 09:01:00,
2013-06-14 04:05:00,70.6,65.4,29.98,ESE,113,2.0,3.4,84,0.00,,,0.00,WUHU216HW,2013-06-14 09:05:00,
2013-06-14 04:07:00,70.4,65.3,29.98,East,90,1.3,3.4,84,0.00,,,0.00,WUHU216HW,2013-06-14 09:07:00,
2013-06-14 04:09:00,70.4,65.6,29.98,ENE,68,1.1,3.4,85,0.00,,,0.00,WUHU216HW,2013-06-14 09:09:00,
2013-06-14 04:10:00,70.4,65.6,29.99,ESE,113,0.7,3.4,85,0.00,,,0.00,WUHU216HW,2013-06-14 09:10:00,
2013-06-14 04:12:00,70.2,65.4,29.98,SE,135,1.3,2.5,85,0.00,,,0.00,WUHU216HW,2013-06-14 09:12:00,
2013-06-14 04:14:00,70.2,65.4,29.99,SE,135,1.3,2.0,85,0.00,,,0.00,WUHU216HW,2013-06-14 09:14:00,
2013-06-14 04:15:00,70.2,65.4,29.99,SE,135,1.3,1.8,85,0.00,,,0.00,WUHU216HW,2013-06-14 09:15:00,
2013-06-14 04:17:00,70.2,65.4,29.99,SE,135,0.9,2.2,85,0.00,,,0.00,WUHU216HW,2013-06-14 09:17:00,
2013-06-14 04:22:00,70.2,65.8,29.99,ESE,113,2.0,2.2,86,0.00,,,0.00,WUHU216HW,2013-06-14 09:22:00,
2013-06-14 04:24:00,70.2,65.8,29.99,ESE,113,2.0,2.5,86,0.00,,,0.00,WUHU216HW,2013-06-14 09:24:00,
2013-06-14 04:25:00,70.2,65.8,29.98,ESE,113,3.8,3.8,86,0.00,,,0.00,WUHU216HW,2013-06-14 09:25:00,
2013-06-14 04:26:00,70.2,65.8,29.98,East,90,2.5,3.8,86,0.00,,,0.00,WUHU216HW,2013-06-14 09:26:00,
2013-06-14 04:27:00,70.2,65.8,29.98,East,90,2.5,3.8,86,0.00,,,0.00,WUHU216HW,2013-06-14 09:27:00,
2013-06-14 04:28:00,70.2,65.8,29.98,SE,135,3.1,3.8,86,0.00,,,0.00,WUHU216HW,2013-06-14 09:28:00,
2013-06-14 04:29:00,70.2,65.8,29.98,SE,135,3.1,3.8,86,0.00,,,0.00,WUHU216HW,2013-06-14 09:29:00,
2013-06-14 04:30:00,70.2,65.8,29.98,SE,135,3.1,3.8,86,0.00,,,0.00,WUHU216HW,2013-06-14 09:30:00,
2013-06-14 04:32:00,70.2,65.4,29.98,ESE,113,0.9,3.8,85,0.00,,,0.00,WUHU216HW,2013-06-14 09:32:00,
2013-06-14 04:35:00,70.2,65.8,29.98,ESE,113,1.1,3.1,86,0.00,,,0.00,WUHU216HW,2013-06-14 09:35:00,
2013-06-14 04:37:00,70.2,65.8,29.98,ESE,113,1.1,3.1,86,0.00,,,0.00,WUHU216HW,2013-06-14 09:37:00,
2013-06-14 04:38:00,70.2,65.8,29.98,ESE,113,1.1,3.1,86,0.00,,,0.00,WUHU216HW,2013-06-14 09:38:00,
2013-06-14 04:40:00,70.0,65.6,29.98,ESE,113,4.0,4.0,86,0.00,,,0.00,WUHU216HW,2013-06-14 09:40:00,
2013-06-14 04:41:00,70.0,65.6,29.98,ESE,113,2.2,4.0,86,0.00,,,0.00,WUHU216HW,2013-06-14 09:41:00,
2013-06-14 04:43:00,70.0,65.6,29.98,ESE,113,0.9,4.0,86,0.00,,,0.00,WUHU216HW,2013-06-14 09:43:00,
2013-06-14 04:45:00,69.8,65.4,29.98,East,90,1.1,4.0,86,0.00,,,0.00,WUHU216HW,2013-06-14 09:45:00,
2013-06-14 04:46:00,69.8,65.4,29.98,ESE,113,0.0,4.0,86,0.00,,,0.00,WUHU216HW,2013-06-14 09:46:00,
2013-06-14 04:48:00,69.8,65.4,29.98,East,90,4.5,4.5,86,0.00,,,0.00,WUHU216HW,2013-06-14 09:48:00,
2013-06-14 04:50:00,69.8,65.8,29.98,ESE,113,2.5,4.5,87,0.00,,,0.00,WUHU216HW,2013-06-14 09:50:00,
2013-06-14 04:53:00,69.8,65.4,29.98,SE,135,1.8,4.5,86,0.00,,,0.00,WUHU216HW,2013-06-14 09:53:00,
2013-06-14 04:54:00,69.8,65.4,29.98,ESE,113,1.6,4.5,86,0.00,,,0.00,WUHU216HW,2013-06-14 09:54:00,
2013-06-14 04:55:00,69.8,65.4,29.98,ESE,113,2.5,4.5,86,0.00,,,0.00,WUHU216HW,2013-06-14 09:55:00,
2013-06-14 04:58:00,69.8,65.8,29.98,ESE,113,2.9,2.9,87,0.00,,,0.00,WUHU216HW,2013-06-14 09:58:00,
2013-06-14 04:59:00,69.8,65.8,29.98,ESE,113,2.5,2.9,87,0.00,,,0.00,WUHU216HW,2013-06-14 09:59:00,
2013-06-14 05:01:00,69.8,65.8,29.98,ESE,113,3.4,3.4,87,0.00,,,0.00,WUHU216HW,2013-06-14 10:01:00,
2013-06-14 05:02:00,69.7,65.6,29.98,ESE,113,3.1,3.4,87,0.00,,,0.00,WUHU216HW,2013-06-14 10:02:00,
2013-06-14 05:03:00,69.7,65.6,29.98,East,90,2.5,3.4,87,0.00,,,0.00,WUHU216HW,2013-06-14 10:03:00,
2013-06-14 05:05:00,69.8,65.8,29.98,ESE,113,2.0,3.4,87,0.00,,,0.00,WUHU216HW,2013-06-14 10:05:00,
2013-06-14 05:06:00,69.8,65.8,29.98,East,90,3.1,3.4,87,0.00,,,0.00,WUHU216HW,2013-06-14 10:06:00,
2013-06-14 05:07:00,69.7,65.6,29.98,SE,135,2.2,3.4,87,0.00,,,0.00,WUHU216HW,2013-06-14 10:07:00,
2013-06-14 05:09:00,69.7,65.6,29.98,SE,135,2.2,3.4,87,0.00,,,0.00,WUHU216HW,2013-06-14 10:09:00,
2013-06-14 05:11:00,69.7,65.6,29.98,East,90,1.8,3.1,87,0.00,,,0.00,WUHU216HW,2013-06-14 10:11:00,
2013-06-14 05:12:00,69.7,65.6,29.98,ENE,68,0.9,3.1,87,0.00,,,0.00,WUHU216HW,2013-06-14 10:12:00,
2013-06-14 05:14:00,69.7,65.6,29.98,ESE,113,0.2,3.1,87,0.00,,,0.00,WUHU216HW,2013-06-14 10:14:00,
2013-06-14 05:16:00,69.7,65.6,29.99,ESE,113,0.7,2.2,87,0.00,,,0.00,WUHU216HW,2013-06-14 10:16:00,
2013-06-14 05:17:00,69.7,65.6,29.99,ESE,113,0.7,1.8,87,0.00,,,0.00,WUHU216HW,2013-06-14 10:17:00,
2013-06-14 05:18:00,69.7,65.6,29.98,East,90,0.4,1.8,87,0.00,,,0.00,WUHU216HW,2013-06-14 10:18:00,
2013-06-14 05:19:00,69.7,65.6,29.98,East,90,0.4,1.8,87,0.00,,,0.00,WUHU216HW,2013-06-14 10:19:00,
2013-06-14 05:20:00,69.7,65.6,29.98,East,90,1.8,1.8,87,0.00,,,0.00,WUHU216HW,2013-06-14 10:20:00,
2013-06-14 05:21:00,69.5,65.4,29.98,ESE,113,0.7,1.8,87,0.00,,,0.00,WUHU216HW,2013-06-14 10:21:00,
2013-06-14 05:22:00,69.5,65.4,29.98,East,90,1.6,1.8,87,0.00,,,0.00,WUHU216HW,2013-06-14 10:22:00,
2013-06-14 05:24:00,69.5,65.4,29.98,East,90,1.1,1.8,87,0.00,,,0.00,WUHU216HW,2013-06-14 10:24:00,
2013-06-14 05:26:00,69.5,65.4,29.98,SE,135,0.7,1.8,87,0.00,,,0.00,WUHU216HW,2013-06-14 10:26:00,
2013-06-14 05:27:00,69.5,65.4,29.99,ESE,113,0.4,1.8,87,0.00,,,0.00,WUHU216HW,2013-06-14 10:27:00,
2013-06-14 05:29:00,69.5,65.4,29.99,ESE,113,1.8,1.8,87,0.00,,,0.00,WUHU216HW,2013-06-14 10:29:00,
2013-06-14 05:31:00,69.5,65.4,29.99,ESE,113,1.8,1.8,87,0.00,,,0.00,WUHU216HW,2013-06-14 10:31:00,
2013-06-14 05:34:00,69.5,65.4,29.99,SE,135,2.7,2.7,87,0.00,,,0.00,WUHU216HW,2013-06-14 10:34:00,
2013-06-14 05:35:00,69.5,65.4,29.99,ESE,113,2.9,2.9,87,0.00,,,0.00,WUHU216HW,2013-06-14 10:35:00,
2013-06-14 05:37:00,69.5,65.4,29.99,SE,135,2.7,2.9,87,0.00,,,0.00,WUHU216HW,2013-06-14 10:37:00,
2013-06-14 05:38:00,69.5,65.4,29.99,ESE,113,1.8,2.9,87,0.00,,,0.00,WUHU216HW,2013-06-14 10:38:00,
2013-06-14 05:39:00,69.5,65.4,29.99,ESE,113,1.8,2.9,87,0.00,,,0.00,WUHU216HW,2013-06-14 10:39:00,
2013-06-14 05:40:00,69.5,65.7,29.99,SE,135,1.6,2.9,88,0.00,,,0.00,WUHU216HW,2013-06-14 10:40:00,
2013-06-14 05:44:00,69.5,65.7,29.99,East,90,3.4,3.4,88,0.00,,,0.00,WUHU216HW,2013-06-14 10:44:00,
2013-06-14 05:45:00,69.5,65.4,29.99,ESE,113,1.8,3.4,87,0.00,,,0.00,WUHU216HW,2013-06-14 10:45:00,
2013-06-14 05:47:00,69.5,65.4,29.99,ESE,113,3.6,3.6,87,0.00,,,0.00,WUHU216HW,2013-06-14 10:47:00,
2013-06-14 05:48:00,69.5,65.4,29.99,ESE,113,0.7,3.6,87,0.00,,,0.00,WUHU216HW,2013-06-14 10:48:00,
2013-06-14 05:49:00,69.5,65.4,29.99,ESE,113,0.7,3.6,87,0.00,,,0.00,WUHU216HW,2013-06-14 10:49:00,
2013-06-14 05:50:00,69.5,65.4,29.99,ESE,113,2.0,3.6,87,0.00,,,0.00,WUHU216HW,2013-06-14 10:50:00,
2013-06-14 05:52:00,69.5,65.4,29.99,SE,135,1.8,3.6,87,0.00,,,0.00,WUHU216HW,2013-06-14 10:52:00,
2013-06-14 05:54:00,69.5,65.4,29.99,SE,135,0.9,3.6,87,0.00,,,0.00,WUHU216HW,2013-06-14 10:54:00,
2013-06-14 05:55:00,69.5,65.4,29.99,ESE,113,1.1,3.6,87,0.00,,,0.00,WUHU216HW,2013-06-14 10:55:00,
2013-06-14 05:57:00,69.5,65.4,29.99,SE,135,3.1,3.1,87,0.00,,,0.00,WUHU216HW,2013-06-14 10:57:00,
2013-06-14 05:58:00,69.5,65.4,29.99,ESE,113,1.1,3.1,87,0.00,,,0.00,WUHU216HW,2013-06-14 10:58:00,
2013-06-14 05:59:00,69.5,65.4,29.99,East,90,2.5,3.1,87,0.00,,,0.00,WUHU216HW,2013-06-14 10:59:00,
2013-06-14 06:02:00,69.5,65.4,29.99,ESE,113,0.4,3.1,87,0.00,,,0.00,WUHU216HW,2013-06-14 11:02:00,
2013-06-14 06:03:00,69.5,65.4,29.99,ESE,113,1.1,3.1,87,0.00,,,0.00,WUHU216HW,2013-06-14 11:03:00,
2013-06-14 06:05:00,69.5,65.4,29.99,ESE,113,0.7,3.1,87,0.00,,,0.00,WUHU216HW,2013-06-14 11:05:00,
2013-06-14 06:06:00,69.5,65.1,29.99,SE,135,1.6,3.1,86,0.00,,,0.00,WUHU216HW,2013-06-14 11:06:00,
2013-06-14 06:08:00,69.5,65.4,29.99,ESE,113,3.6,3.6,87,0.00,,,0.00,WUHU216HW,2013-06-14 11:08:00,
2013-06-14 06:09:00,69.5,65.1,29.99,ESE,113,2.9,3.6,86,0.00,,,0.00,WUHU216HW,2013-06-14 11:09:00,
2013-06-14 06:10:00,69.5,65.1,29.99,ESE,113,2.9,3.6,86,0.00,,,0.00,WUHU216HW,2013-06-14 11:10:00,
2013-06-14 06:11:00,69.7,65.3,29.99,ESE,113,4.5,4.5,86,0.00,,,0.00,WUHU216HW,2013-06-14 11:11:00,
2013-06-14 06:13:00,69.7,65.3,29.99,ESE,113,2.9,4.5,86,0.00,,,0.00,WUHU216HW,2013-06-14 11:13:00,
2013-06-14 06:15:00,69.7,65.3,29.99,SE,135,2.5,4.5,86,0.00,,,0.00,WUHU216HW,2013-06-14 11:15:00,
2013-06-14 06:16:00,69.7,65.3,29.99,SE,135,2.5,4.5,86,0.00,,,0.00,WUHU216HW,2013-06-14 11:16:00,
2013-06-14 06:19:00,69.7,65.3,29.99,SE,135,4.9,4.9,86,0.00,,,0.00,WUHU216HW,2013-06-14 11:19:00,
2013-06-14 06:20:00,69.8,65.4,29.99,SE,135,3.4,4.9,86,0.00,,,0.00,WUHU216HW,2013-06-14 11:20:00,
2013-06-14 06:22:00,69.7,65.3,29.99,ESE,113,3.8,4.9,86,0.00,,,0.00,WUHU216HW,2013-06-14 11:22:00,
2013-06-14 06:24:00,69.7,65.3,29.99,SE,135,4.7,4.9,86,0.00,,,0.00,WUHU216HW,2013-06-14 11:24:00,
2013-06-14 06:25:00,69.7,65.3,29.99,SE,135,4.7,4.9,86,0.00,,,0.00,WUHU216HW,2013-06-14 11:25:00,
2013-06-14 06:26:00,69.8,65.4,29.99,ESE,113,4.7,4.9,86,0.00,,,0.00,WUHU216HW,2013-06-14 11:26:00,
2013-06-14 06:27:00,69.8,65.4,29.99,SE,135,5.4,5.4,86,0.00,,,0.00,WUHU216HW,2013-06-14 11:27:00,
2013-06-14 06:29:00,69.8,65.4,30.00,SE,135,3.8,5.4,86,0.00,,,0.00,WUHU216HW,2013-06-14 11:29:00,
2013-06-14 06:30:00,69.8,65.4,30.00,SE,135,3.4,5.4,86,0.00,,,0.00,WUHU216HW,2013-06-14 11:30:00,
2013-06-14 06:31:00,69.8,65.4,30.00,SE,135,3.6,5.4,86,0.00,,,0.00,WUHU216HW,2013-06-14 11:31:00,
2013-06-14 06:32:00,70.0,65.6,30.00,SE,135,3.1,5.4,86,0.00,,,0.00,WUHU216HW,2013-06-14 11:32:00,
2013-06-14 06:35:00,70.2,65.4,30.00,ESE,113,5.4,5.6,85,0.00,,,0.00,WUHU216HW,2013-06-14 11:35:00,
2013-06-14 06:38:00,70.2,65.4,30.00,ESE,113,4.7,5.6,85,0.00,,,0.00,WUHU216HW,2013-06-14 11:38:00,
2013-06-14 06:40:00,70.4,65.6,30.00,SE,135,3.1,5.6,85,0.00,,,0.00,WUHU216HW,2013-06-14 11:40:00,
2013-06-14 06:41:00,70.4,65.6,30.00,SE,135,3.1,5.6,85,0.00,,,0.00,WUHU216HW,2013-06-14 11:41:00,
2013-06-14 06:43:00,70.4,65.3,30.00,SE,135,2.5,5.4,84,0.00,,,0.00,WUHU216HW,2013-06-14 11:43:00,
2013-06-14 06:45:00,70.6,65.4,30.00,SE,135,4.0,5.4,84,0.00,,,0.00,WUHU216HW,2013-06-14 11:45:00,
2013-06-14 06:46:00,70.6,65.4,30.00,SE,135,4.0,5.4,84,0.00,,,0.00,WUHU216HW,2013-06-14 11:46:00,
2013-06-14 06:47:00,70.7,65.6,30.01,SE,135,3.4,4.0,84,0.00,,,0.00,WUHU216HW,2013-06-14 11:47:00,
2013-06-14 06:49:00,70.7,65.6,30.01,SE,135,4.3,4.3,84,0.00,,,0.00,WUHU216HW,2013-06-14 11:49:00,
2013-06-14 06:50:00,70.7,65.6,30.01,ESE,113,2.9,4.3,84,0.00,,,0.00,WUHU216HW,2013-06-14 11:50:00,
2013-06-14 06:51:00,70.7,65.6,30.01,ESE,113,2.9,4.3,84,0.00,,,0.00,WUHU216HW,2013-06-14 11:51:00,
2013-06-14 06:52:00,70.7,65.6,30.01,SE,135,6.0,6.0,84,0.00,,,0.00,WUHU216HW,2013-06-14 11:52:00,
2013-06-14 06:53:00,70.7,65.6,30.00,ESE,113,3.8,6.0,84,0.00,,,0.00,WUHU216HW,2013-06-14 11:53:00,
2013-06-14 06:55:00,70.7,65.6,30.00,SE,135,4.7,6.0,84,0.00,,,0.00,WUHU216HW,2013-06-14 11:55:00,
2013-06-14 06:56:00,70.7,65.6,30.00,SE,135,4.7,6.0,84,0.00,,,0.00,WUHU216HW,2013-06-14 11:56:00,
2013-06-14 06:58:00,70.9,65.8,30.00,ESE,113,3.6,6.0,84,0.00,,,0.00,WUHU216HW,2013-06-14 11:58:00,
2013-06-14 06:59:00,70.9,65.8,30.00,SE,135,5.4,6.0,84,0.00,,,0.00,WUHU216HW,2013-06-14 11:59:00,
2013-06-14 07:01:00,71.1,66.0,30.00,ESE,113,4.7,6.0,84,0.00,,,0.00,WUHU216HW,2013-06-14 12:01:00,
2013-06-14 07:03:00,71.3,65.8,30.00,SE,135,4.7,5.4,83,0.00,,,0.00,WUHU216HW,2013-06-14 12:03:00,
2013-06-14 07:05:00,71.5,66.0,30.00,SE,135,5.4,5.4,83,0.00,,,0.00,WUHU216HW,2013-06-14 12:05:00,
2013-06-14 07:06:00,71.5,66.0,30.01,ESE,113,3.4,5.4,83,0.00,,,0.00,WUHU216HW,2013-06-14 12:06:00,
2013-06-14 07:07:00,71.6,66.5,30.01,ESE,113,3.6,5.4,84,0.00,,,0.00,WUHU216HW,2013-06-14 12:07:00,
2013-06-14 07:09:00,71.6,66.2,30.01,ESE,113,6.0,6.0,83,0.00,,,0.00,WUHU216HW,2013-06-14 12:09:00,
2013-06-14 07:11:00,71.8,66.1,30.01,ESE,113,4.9,6.0,82,0.00,,,0.00,WUHU216HW,2013-06-14 12:11:00,
2013-06-14 07:12:00,71.8,66.3,30.01,ESE,113,2.9,6.0,83,0.00,,,0.00,WUHU216HW,2013-06-14 12:12:00,
2013-06-14 07:14:00,71.8,66.3,30.01,SE,135,3.8,6.0,83,0.00,,,0.00,WUHU216HW,2013-06-14 12:14:00,
2013-06-14 07:16:00,72.0,66.3,30.01,ESE,113,4.9,6.0,82,0.00,,,0.00,WUHU216HW,2013-06-14 12:16:00,
2013-06-14 07:18:00,72.2,66.4,30.01,SE,135,4.7,6.0,82,0.00,,,0.00,WUHU216HW,2013-06-14 12:18:00,
2013-06-14 07:19:00,72.2,66.4,30.01,ESE,113,5.1,6.0,82,0.00,,,0.00,WUHU216HW,2013-06-14 12:19:00,
2013-06-14 07:21:00,72.4,66.6,30.01,ESE,113,5.1,6.0,82,0.00,,,0.00,WUHU216HW,2013-06-14 12:21:00,
2013-06-14 07:22:00,72.5,66.8,30.01,ESE,113,5.1,6.0,82,0.00,,,0.00,WUHU216HW,2013-06-14 12:22:00,
2013-06-14 07:26:00,72.5,66.4,30.01,ESE,113,5.4,6.0,81,0.00,,,0.00,WUHU216HW,2013-06-14 12:26:00,
2013-06-14 07:30:00,72.4,66.3,30.01,ESE,113,4.0,6.0,81,0.00,,,0.00,WUHU216HW,2013-06-14 12:30:00,
2013-06-14 07:31:00,72.5,66.8,30.01,ESE,113,4.0,6.0,82,0.00,,,0.00,WUHU216HW,2013-06-14 12:31:00,
2013-06-14 07:32:00,72.5,66.8,30.01,ESE,113,4.0,6.0,82,0.00,,,0.00,WUHU216HW,2013-06-14 12:32:00,
2013-06-14 07:35:00,72.9,67.2,30.01,SE,135,5.6,5.8,82,0.00,,,0.00,WUHU216HW,2013-06-14 12:35:00,
2013-06-14 07:37:00,73.1,67.0,30.01,SE,135,5.4,5.8,81,0.00,,,0.00,WUHU216HW,2013-06-14 12:37:00,
2013-06-14 07:38:00,73.1,67.0,30.01,East,90,6.9,7.2,81,0.00,,,0.00,WUHU216HW,2013-06-14 12:38:00,
2013-06-14 07:39:00,73.3,67.5,30.01,ESE,113,3.6,7.2,82,0.00,,,0.00,WUHU216HW,2013-06-14 12:39:00,
2013-06-14 07:41:00,73.4,67.3,30.01,ESE,113,4.9,7.2,81,0.00,,,0.00,WUHU216HW,2013-06-14 12:41:00,
2013-06-14 07:42:00,73.4,67.3,30.01,ESE,113,4.9,7.2,81,0.00,,,0.00,WUHU216HW,2013-06-14 12:42:00,
2013-06-14 07:43:00,73.8,67.7,30.01,ESE,113,4.3,8.3,81,0.00,,,0.00,WUHU216HW,2013-06-14 12:43:00,
2013-06-14 07:45:00,73.8,67.7,30.01,SE,135,3.6,8.3,81,0.00,,,0.00,WUHU216HW,2013-06-14 12:45:00,
2013-06-14 07:46:00,73.8,67.7,30.01,ESE,113,4.7,8.3,81,0.00,,,0.00,WUHU216HW,2013-06-14 12:46:00,
2013-06-14 07:47:00,73.8,67.7,30.01,ESE,113,4.7,8.3,81,0.00,,,0.00,WUHU216HW,2013-06-14 12:47:00,
2013-06-14 07:48:00,74.2,67.7,30.02,East,90,5.4,8.3,80,0.00,,,0.00,WUHU216HW,2013-06-14 12:48:00,
2013-06-14 07:49:00,74.2,68.1,30.02,ESE,113,4.9,8.3,81,0.00,,,0.00,WUHU216HW,2013-06-14 12:49:00,
2013-06-14 07:51:00,74.3,67.5,30.02,East,90,4.7,8.3,79,0.00,,,0.00,WUHU216HW,2013-06-14 12:51:00,
2013-06-14 07:52:00,74.3,67.5,30.02,East,90,4.7,8.3,79,0.00,,,0.00,WUHU216HW,2013-06-14 12:52:00,
2013-06-14 07:55:00,74.7,67.9,30.02,ESE,113,5.4,6.9,79,0.00,,,0.00,WUHU216HW,2013-06-14 12:55:00,
2013-06-14 07:57:00,74.7,67.9,30.02,ESE,113,5.4,6.9,79,0.00,,,0.00,WUHU216HW,2013-06-14 12:57:00,
2013-06-14 07:58:00,74.7,67.9,30.02,SE,135,6.5,6.9,79,0.00,,,0.00,WUHU216HW,2013-06-14 12:58:00,
2013-06-14 08:00:00,74.7,67.9,30.02,ESE,113,8.1,8.1,79,0.00,,,0.00,WUHU216HW,2013-06-14 13:00:00,
2013-06-14 08:02:00,74.9,68.1,30.02,East,90,4.9,8.1,79,0.00,,,0.00,WUHU216HW,2013-06-14 13:02:00,
2013-06-14 08:03:00,74.9,68.1,30.02,East,90,6.5,8.1,79,0.00,,,0.00,WUHU216HW,2013-06-14 13:03:00,
2013-06-14 08:04:00,75.1,68.2,30.02,ESE,113,5.4,8.1,79,0.00,,,0.00,WUHU216HW,2013-06-14 13:04:00,
2013-06-14 08:05:00,75.2,68.0,30.02,SE,135,5.6,8.1,78,0.00,,,0.00,WUHU216HW,2013-06-14 13:05:00,
2013-06-14 08:07:00,75.2,68.0,30.02,SE,135,5.4,8.1,78,0.00,,,0.00,WUHU216HW,2013-06-14 13:07:00,
2013-06-14 08:08:00,75.2,68.0,30.02,SE,135,7.8,8.1,78,0.00,,,0.00,WUHU216HW,2013-06-14 13:08:00,
2013-06-14 08:10:00,75.2,68.0,30.02,ESE,113,4.7,7.8,78,0.00,,,0.00,WUHU216HW,2013-06-14 13:10:00,
2013-06-14 08:12:00,75.2,68.0,30.02,SE,135,4.7,8.1,78,0.00,,,0.00,WUHU216HW,2013-06-14 13:12:00,
2013-06-14 08:13:00,75.2,68.0,30.02,SE,135,4.0,8.1,78,0.00,,,0.00,WUHU216HW,2013-06-14 13:13:00,
2013-06-14 08:14:00,75.6,68.7,30.02,SE,135,3.8,8.1,79,0.00,,,0.00,WUHU216HW,2013-06-14 13:14:00,
2013-06-14 08:16:00,75.8,67.7,30.02,SE,135,5.6,8.1,76,0.00,,,0.00,WUHU216HW,2013-06-14 13:16:00,
2013-06-14 08:17:00,75.8,68.0,30.02,SE,135,5.4,8.1,77,0.00,,,0.00,WUHU216HW,2013-06-14 13:17:00,
2013-06-14 08:18:00,75.8,67.7,30.02,SE,135,4.7,8.1,76,0.00,,,0.00,WUHU216HW,2013-06-14 13:18:00,
2013-06-14 08:22:00,76.0,68.7,30.02,SE,135,4.0,6.3,78,0.00,,,0.00,WUHU216HW,2013-06-14 13:22:00,
2013-06-14 08:23:00,76.3,68.6,30.02,SE,135,3.1,6.3,77,0.00,,,0.00,WUHU216HW,2013-06-14 13:23:00,
2013-06-14 08:25:00,76.3,68.2,30.03,SSE,158,6.9,7.2,76,0.00,,,0.00,WUHU216HW,2013-06-14 13:25:00,
2013-06-14 08:27:00,76.3,68.2,30.02,SSE,158,6.3,7.2,76,0.00,,,0.00,WUHU216HW,2013-06-14 13:27:00,
2013-06-14 08:28:00,76.3,68.2,30.02,SE,135,8.1,8.1,76,0.00,,,0.00,WUHU216HW,2013-06-14 13:28:00,
2013-06-14 08:30:00,76.1,68.1,30.03,SSE,158,9.8,9.8,76,0.00,,,0.00,WUHU216HW,2013-06-14 13:30:00,
2013-06-14 08:33:00,76.3,68.2,30.03,SSE,158,6.9,9.8,76,0.00,,,0.00,WUHU216HW,2013-06-14 13:33:00,
2013-06-14 08:35:00,76.7,68.1,30.03,SE,135,8.5,9.8,75,0.00,,,0.00,WUHU216HW,2013-06-14 13:35:00,
2013-06-14 08:37:00,76.7,68.5,30.03,SE,135,7.4,9.8,76,0.00,,,0.00,WUHU216HW,2013-06-14 13:37:00,
2013-06-14 08:38:00,76.7,68.5,30.03,SE,135,7.4,9.8,76,0.00,,,0.00,WUHU216HW,2013-06-14 13:38:00,
2013-06-14 08:41:00,76.7,68.5,30.03,SE,135,6.7,8.5,76,0.00,,,0.00,WUHU216HW,2013-06-14 13:41:00,
2013-06-14 08:42:00,76.7,69.3,30.03,SSE,158,5.6,8.5,78,0.00,,,0.00,WUHU216HW,2013-06-14 13:42:00,
2013-06-14 08:43:00,76.7,69.3,30.03,SSE,158,5.6,8.5,78,0.00,,,0.00,WUHU216HW,2013-06-14 13:43:00,
2013-06-14 08:44:00,76.7,68.1,30.03,SE,135,7.6,8.5,75,0.00,,,0.00,WUHU216HW,2013-06-14 13:44:00,
2013-06-14 08:45:00,76.7,68.1,30.03,SSE,158,6.9,8.1,75,0.00,,,0.00,WUHU216HW,2013-06-14 13:45:00,
2013-06-14 08:47:00,76.5,68.4,30.03,SSE,158,8.3,8.9,76,0.00,,,0.00,WUHU216HW,2013-06-14 13:47:00,
2013-06-14 08:48:00,76.5,68.4,30.03,SSE,158,8.3,8.9,76,0.00,,,0.00,WUHU216HW,2013-06-14 13:48:00,
2013-06-14 08:49:00,76.7,69.0,30.03,SE,135,7.4,8.9,77,0.00,,,0.00,WUHU216HW,2013-06-14 13:49:00,
2013-06-14 08:50:00,76.7,69.0,30.03,SE,135,5.8,8.9,77,0.00,,,0.00,WUHU216HW,2013-06-14 13:50:00,
2013-06-14 08:53:00,76.9,68.3,30.03,SSE,158,6.7,8.9,75,0.00,,,0.00,WUHU216HW,2013-06-14 13:53:00,
2013-06-14 08:54:00,77.0,68.9,30.03,SSE,158,5.4,8.9,76,0.00,,,0.00,WUHU216HW,2013-06-14 13:54:00,
2013-06-14 08:56:00,77.4,69.2,30.03,SE,135,5.8,8.3,76,0.00,,,0.00,WUHU216HW,2013-06-14 13:56:00,
2013-06-14 08:58:00,77.4,68.9,30.03,SE,135,6.7,7.6,75,0.00,,,0.00,WUHU216HW,2013-06-14 13:58:00,
2013-06-14 08:59:00,77.6,69.0,30.03,SE,135,8.1,8.1,75,0.00,,,0.00,WUHU216HW,2013-06-14 13:59:00,
2013-06-14 09:01:00,77.6,69.4,30.02,SE,135,6.3,8.1,76,0.00,,,0.00,WUHU216HW,2013-06-14 14:01:00,
2013-06-14 09:02:00,77.8,69.2,30.02,SE,135,7.8,8.1,75,0.00,,,0.00,WUHU216HW,2013-06-14 14:02:00,
2013-06-14 09:03:00,77.8,69.2,30.02,SE,135,7.8,8.1,75,0.00,,,0.00,WUHU216HW,2013-06-14 14:03:00,
2013-06-14 09:04:00,77.8,68.8,30.02,SE,135,6.7,9.2,74,0.00,,,0.00,WUHU216HW,2013-06-14 14:04:00,
2013-06-14 09:06:00,77.9,68.9,30.02,SSE,158,8.9,9.2,74,0.00,,,0.00,WUHU216HW,2013-06-14 14:06:00,
2013-06-14 09:08:00,78.1,69.5,30.02,SE,135,5.4,9.2,75,0.00,,,0.00,WUHU216HW,2013-06-14 14:08:00,
2013-06-14 09:09:00,78.1,69.5,30.02,SSE,158,6.9,9.2,75,0.00,,,0.00,WUHU216HW,2013-06-14 14:09:00,
2013-06-14 09:11:00,78.5,69.5,30.03,SE,135,8.3,9.2,74,0.00,,,0.00,WUHU216HW,2013-06-14 14:11:00,
2013-06-14 09:12:00,78.5,69.5,30.03,SE,135,8.5,9.2,74,0.00,,,0.00,WUHU216HW,2013-06-14 14:12:00,
2013-06-14 09:14:00,78.5,69.5,30.03,SE,135,8.5,9.2,74,0.00,,,0.00,WUHU216HW,2013-06-14 14:14:00,
2013-06-14 09:17:00,78.8,69.4,30.03,SE,135,8.3,8.9,73,0.00,,,0.00,WUHU216HW,2013-06-14 14:17:00,
2013-06-14 09:18:00,78.8,69.4,30.03,South,180,7.2,8.9,73,0.00,,,0.00,WUHU216HW,2013-06-14 14:18:00,
2013-06-14 09:19:00,78.8,69.4,30.03,South,180,7.2,8.9,73,0.00,,,0.00,WUHU216HW,2013-06-14 14:19:00,
2013-06-14 09:21:00,79.2,69.8,30.03,SSE,158,6.5,9.4,73,0.00,,,0.00,WUHU216HW,2013-06-14 14:21:00,
2013-06-14 09:22:00,79.2,68.9,30.03,SSE,158,8.3,9.4,71,0.00,,,0.00,WUHU216HW,2013-06-14 14:22:00,
2013-06-14 09:24:00,79.2,69.4,30.03,SSE,158,10.1,10.1,72,0.00,,,0.00,WUHU216HW,2013-06-14 14:24:00,
2013-06-14 09:26:00,79.0,69.2,30.03,SE,135,7.8,10.1,72,0.00,,,0.00,WUHU216HW,2013-06-14 14:26:00,
2013-06-14 09:27:00,79.0,70.0,30.03,SE,135,8.3,10.1,74,0.00,,,0.00,WUHU216HW,2013-06-14 14:27:00,
2013-06-14 09:28:00,79.0,69.2,30.03,SSE,158,7.4,10.1,72,0.00,,,0.00,WUHU216HW,2013-06-14 14:28:00,
2013-06-14 09:29:00,79.0,69.2,30.03,SSE,158,7.4,10.1,72,0.00,,,0.00,WUHU216HW,2013-06-14 14:29:00,
2013-06-14 09:30:00,78.8,69.4,30.03,SE,135,7.8,10.1,73,0.00,,,0.00,WUHU216HW,2013-06-14 14:30:00,
2013-06-14 09:31:00,79.0,69.2,30.03,SE,135,8.5,10.1,72,0.00,,,0.00,WUHU216HW,2013-06-14 14:31:00,
2013-06-14 09:33:00,79.0,69.6,30.03,SE,135,6.7,10.1,73,0.00,,,0.00,WUHU216HW,2013-06-14 14:33:00,
2013-06-14 09:34:00,79.0,69.6,30.03,SE,135,6.7,10.1,73,0.00,,,0.00,WUHU216HW,2013-06-14 14:34:00,
2013-06-14 09:35:00,79.6,69.3,30.03,SSE,158,5.8,9.4,71,0.00,,,0.00,WUHU216HW,2013-06-14 14:35:00,
2013-06-14 09:37:00,79.6,69.8,30.03,South,180,4.7,9.4,72,0.00,,,0.00,WUHU216HW,2013-06-14 14:37:00,
2013-06-14 09:38:00,79.9,70.1,30.03,South,180,6.3,9.4,72,0.00,,,0.00,WUHU216HW,2013-06-14 14:38:00,
2013-06-14 09:39:00,79.9,70.1,30.03,South,180,6.3,9.4,72,0.00,,,0.00,WUHU216HW,2013-06-14 14:39:00,
2013-06-14 09:41:00,80.5,70.2,30.04,SSE,158,5.4,8.7,71,0.00,,,0.00,WUHU216HW,2013-06-14 14:41:00,
2013-06-14 09:43:00,81.0,69.9,30.04,SE,135,6.5,8.7,69,0.00,,,0.00,WUHU216HW,2013-06-14 14:43:00,
2013-06-14 09:44:00,80.8,70.6,30.03,SSE,158,4.0,8.7,71,0.00,,,0.00,WUHU216HW,2013-06-14 14:44:00,
2013-06-14 09:45:00,80.8,70.6,30.03,SSE,158,4.0,8.7,71,0.00,,,0.00,WUHU216HW,2013-06-14 14:45:00,
2013-06-14 09:48:00,80.6,70.4,30.03,SSE,158,5.1,7.2,71,0.00,,,0.00,WUHU216HW,2013-06-14 14:48:00,
2013-06-14 09:49:00,80.8,70.6,30.03,SSE,158,6.7,7.2,71,0.00,,,0.00,WUHU216HW,2013-06-14 14:49:00,
2013-06-14 09:50:00,80.8,70.6,30.03,SSE,158,6.7,7.2,71,0.00,,,0.00,WUHU216HW,2013-06-14 14:50:00,
2013-06-14 09:51:00,80.8,70.6,30.03,SSE,158,2.5,7.2,71,0.00,,,0.00,WUHU216HW,2013-06-14 14:51:00,
2013-06-14 09:53:00,81.0,70.4,30.03,South,180,5.4,8.3,70,0.00,,,0.00,WUHU216HW,2013-06-14 14:53:00,
2013-06-14 09:55:00,81.2,70.9,30.03,SSE,158,6.3,8.3,71,0.00,,,0.00,WUHU216HW,2013-06-14 14:55:00,
2013-06-14 09:56:00,81.2,70.5,30.03,ESE,113,3.8,8.3,70,0.00,,,0.00,WUHU216HW,2013-06-14 14:56:00,
2013-06-14 09:57:00,81.2,70.9,30.03,SE,135,3.4,8.3,71,0.00,,,0.00,WUHU216HW,2013-06-14 14:57:00,
2013-06-14 10:00:00,81.4,70.7,30.03,South,180,5.1,8.3,70,0.00,,,0.00,WUHU216HW,2013-06-14 15:00:00,
2013-06-14 10:02:00,81.7,70.1,30.03,SSE,158,7.2,8.3,68,0.00,,,0.00,WUHU216HW,2013-06-14 15:02:00,
2013-06-14 10:04:00,82.1,69.9,30.03,South,180,6.0,7.8,67,0.00,,,0.00,WUHU216HW,2013-06-14 15:04:00,
2013-06-14 10:05:00,82.1,69.9,30.03,SSE,158,5.1,7.8,67,0.00,,,0.00,WUHU216HW,2013-06-14 15:05:00,
2013-06-14 10:06:00,82.1,70.8,30.03,South,180,4.0,7.8,69,0.00,,,0.00,WUHU216HW,2013-06-14 15:06:00,
2013-06-14 10:08:00,82.1,69.9,30.03,SE,135,5.4,7.8,67,0.00,,,0.00,WUHU216HW,2013-06-14 15:08:00,
2013-06-14 10:09:00,82.1,71.3,30.03,SSE,158,4.7,7.8,70,0.00,,,0.00,WUHU216HW,2013-06-14 15:09:00,
2013-06-14 10:10:00,82.1,71.3,30.03,SSE,158,4.7,7.8,70,0.00,,,0.00,WUHU216HW,2013-06-14 15:10:00,
2013-06-14 10:11:00,82.1,69.9,30.03,SE,135,6.0,7.8,67,0.00,,,0.00,WUHU216HW,2013-06-14 15:11:00,
2013-06-14 10:13:00,81.9,70.8,30.03,SSE,158,8.1,8.1,69,0.00,,,0.00,WUHU216HW,2013-06-14 15:13:00,
2013-06-14 10:15:00,81.9,69.9,30.03,SSE,158,8.5,8.5,67,0.00,,,0.00,WUHU216HW,2013-06-14 15:15:00,
2013-06-14 10:16:00,81.9,70.8,30.03,SSE,158,6.3,8.5,69,0.00,,,0.00,WUHU216HW,2013-06-14 15:16:00,
2013-06-14 10:17:00,81.7,70.1,30.03,SE,135,4.9,8.5,68,0.00,,,0.00,WUHU216HW,2013-06-14 15:17:00,
2013-06-14 10:19:00,81.9,70.8,30.03,SE,135,7.6,8.5,69,0.00,,,0.00,WUHU216HW,2013-06-14 15:19:00,
2013-06-14 10:20:00,81.9,70.8,30.03,SE,135,6.3,8.5,69,0.00,,,0.00,WUHU216HW,2013-06-14 15:20:00,
2013-06-14 10:22:00,82.1,72.2,30.03,SSE,158,6.5,8.5,72,0.00,,,0.00,WUHU216HW,2013-06-14 15:22:00,
2013-06-14 10:25:00,82.6,71.4,30.03,SSE,158,4.5,7.6,69,0.00,,,0.00,WUHU216HW,2013-06-14 15:25:00,
2013-06-14 10:26:00,82.8,71.1,30.03,SSE,158,7.4,7.6,68,0.00,,,0.00,WUHU216HW,2013-06-14 15:26:00,
2013-06-14 10:27:00,83.0,71.3,30.03,SSE,158,4.3,7.6,68,0.00,,,0.00,WUHU216HW,2013-06-14 15:27:00,
2013-06-14 10:29:00,82.8,71.1,30.03,SSE,158,9.8,9.8,68,0.00,,,0.00,WUHU216HW,2013-06-14 15:29:00,
2013-06-14 10:30:00,82.8,71.6,30.03,SE,135,7.6,9.8,69,0.00,,,0.00,WUHU216HW,2013-06-14 15:30:00,
2013-06-14 10:33:00,82.6,72.3,30.03,SE,135,5.8,9.8,71,0.00,,,0.00,WUHU216HW,2013-06-14 15:33:00,
2013-06-14 10:36:00,82.8,71.6,30.03,SE,135,6.7,9.8,69,0.00,,,0.00,WUHU216HW,2013-06-14 15:36:00,
2013-06-14 10:37:00,82.6,70.9,30.03,SSE,158,5.4,9.8,68,0.00,,,0.00,WUHU216HW,2013-06-14 15:37:00,
2013-06-14 10:39:00,82.6,71.4,30.02,SE,135,6.3,7.6,69,0.00,,,0.00,WUHU216HW,2013-06-14 15:39:00,
2013-06-14 10:40:00,82.6,72.3,30.02,SSE,158,6.7,6.7,71,0.00,,,0.00,WUHU216HW,2013-06-14 15:40:00,
2013-06-14 10:41:00,82.6,72.3,30.02,SSE,158,6.7,6.7,71,0.00,,,0.00,WUHU216HW,2013-06-14 15:41:00,
2013-06-14 10:43:00,83.0,72.2,30.02,SSE,158,6.3,9.2,70,0.00,,,0.00,WUHU216HW,2013-06-14 15:43:00,
2013-06-14 10:44:00,83.2,71.5,30.03,SSE,158,6.9,9.2,68,0.00,,,0.00,WUHU216HW,2013-06-14 15:44:00,
2013-06-14 10:45:00,83.2,71.9,30.03,SSE,158,4.7,9.2,69,0.00,,,0.00,WUHU216HW,2013-06-14 15:45:00,
2013-06-14 10:46:00,83.2,71.5,30.03,SSE,158,6.9,9.2,68,0.00,,,0.00,WUHU216HW,2013-06-14 15:46:00,
2013-06-14 10:48:00,83.7,71.6,30.03,SSE,158,7.8,9.2,67,0.00,,,0.00,WUHU216HW,2013-06-14 15:48:00,
2013-06-14 10:50:00,83.7,72.0,30.02,SE,135,5.4,9.2,68,0.00,,,0.00,WUHU216HW,2013-06-14 15:50:00,
2013-06-14 10:51:00,83.7,72.0,30.02,SE,135,5.4,9.2,68,0.00,,,0.00,WUHU216HW,2013-06-14 15:51:00,
2013-06-14 10:52:00,83.9,72.6,30.02,SSE,158,8.5,9.6,69,0.00,,,0.00,WUHU216HW,2013-06-14 15:52:00,
2013-06-14 10:55:00,83.9,72.6,30.03,SSE,158,7.2,9.6,69,0.00,,,0.00,WUHU216HW,2013-06-14 15:55:00,
2013-06-14 10:56:00,83.9,72.6,30.03,SSE,158,7.2,9.6,69,0.00,,,0.00,WUHU216HW,2013-06-14 15:56:00,
2013-06-14 11:01:00,84.2,72.1,30.03,SSE,158,8.1,9.6,67,0.00,,,0.00,WUHU216HW,2013-06-14 16:01:00,
2013-06-14 11:02:00,84.2,72.1,30.03,SSE,158,7.6,8.7,67,0.00,,,0.00,WUHU216HW,2013-06-14 16:02:00,
2013-06-14 11:04:00,84.6,72.5,30.02,SSE,158,4.7,8.7,67,0.00,,,0.00,WUHU216HW,2013-06-14 16:04:00,
2013-06-14 11:05:00,84.8,72.2,30.03,South,180,8.3,8.7,66,0.00,,,0.00,WUHU216HW,2013-06-14 16:05:00,
2013-06-14 11:06:00,84.8,72.2,30.03,South,180,8.3,8.7,66,0.00,,,0.00,WUHU216HW,2013-06-14 16:06:00,
2013-06-14 11:07:00,85.0,73.3,30.02,SSE,158,8.5,8.7,68,0.00,,,0.00,WUHU216HW,2013-06-14 16:07:00,
2013-06-14 11:08:00,85.1,73.0,30.02,SE,135,9.6,9.6,67,0.00,,,0.00,WUHU216HW,2013-06-14 16:08:00,
2013-06-14 11:09:00,85.3,73.2,30.02,SSE,158,7.8,9.6,67,0.00,,,0.00,WUHU216HW,2013-06-14 16:09:00,
2013-06-14 11:11:00,85.7,72.5,30.02,SSE,158,4.9,9.6,65,0.00,,,0.00,WUHU216HW,2013-06-14 16:11:00,
2013-06-14 11:14:00,86.0,72.5,30.02,SSE,158,8.3,9.6,64,0.00,,,0.00,WUHU216HW,2013-06-14 16:14:00,
2013-06-14 11:15:00,86.0,72.9,30.03,SSE,158,8.3,9.6,65,0.00,,,0.00,WUHU216HW,2013-06-14 16:15:00,
2013-06-14 11:16:00,86.0,72.9,30.03,SSE,158,8.3,9.6,65,0.00,,,0.00,WUHU216HW,2013-06-14 16:16:00,
2013-06-14 11:18:00,86.2,73.1,30.02,SSW,203,7.8,8.5,65,0.00,,,0.00,WUHU216HW,2013-06-14 16:18:00,
2013-06-14 11:19:00,86.4,72.3,30.02,South,180,7.6,8.5,63,0.00,,,0.00,WUHU216HW,2013-06-14 16:19:00,
2013-06-14 11:21:00,86.4,71.8,30.02,SSW,203,8.9,8.9,62,0.00,,,0.00,WUHU216HW,2013-06-14 16:21:00,
2013-06-14 11:23:00,86.0,72.0,30.02,SSW,203,6.9,8.9,63,0.00,,,0.00,WUHU216HW,2013-06-14 16:23:00,
2013-06-14 11:24:00,86.0,72.5,30.02,South,180,5.1,8.9,64,0.00,,,0.00,WUHU216HW,2013-06-14 16:24:00,
2013-06-14 11:26:00,85.7,72.1,30.02,SSW,203,7.4,8.9,64,0.00,,,0.00,WUHU216HW,2013-06-14 16:26:00,
2013-06-14 11:27:00,85.9,72.3,30.02,SSW,203,7.2,8.9,64,0.00,,,0.00,WUHU216HW,2013-06-14 16:27:00,
2013-06-14 11:29:00,85.7,72.1,30.02,SSE,158,7.2,8.9,64,0.00,,,0.00,WUHU216HW,2013-06-14 16:29:00,
2013-06-14 11:30:00,85.7,72.1,30.02,South,180,6.9,8.9,64,0.00,,,0.00,WUHU216HW,2013-06-14 16:30:00,
2013-06-14 11:31:00,85.7,72.1,30.02,South,180,6.9,8.9,64,0.00,,,0.00,WUHU216HW,2013-06-14 16:31:00,
2013-06-14 11:34:00,85.1,71.6,30.02,SSE,158,8.5,9.8,64,0.00,,,0.00,WUHU216HW,2013-06-14 16:34:00,
2013-06-14 11:36:00,84.6,72.0,30.02,SSW,203,4.7,9.8,66,0.00,,,0.00,WUHU216HW,2013-06-14 16:36:00,
2013-06-14 11:37:00,84.6,72.0,30.02,SSW,203,4.7,9.8,66,0.00,,,0.00,WUHU216HW,2013-06-14 16:37:00,
2013-06-14 11:38:00,84.6,72.0,30.02,South,180,4.7,9.8,66,0.00,,,0.00,WUHU216HW,2013-06-14 16:38:00,
2013-06-14 11:39:00,84.6,72.0,30.02,South,180,4.7,9.8,66,0.00,,,0.00,WUHU216HW,2013-06-14 16:39:00,
2013-06-14 11:41:00,85.0,71.9,30.02,SSW,203,4.7,9.8,65,0.00,,,0.00,WUHU216HW,2013-06-14 16:41:00,
2013-06-14 11:42:00,85.0,71.9,30.02,SSW,203,4.7,9.8,65,0.00,,,0.00,WUHU216HW,2013-06-14 16:42:00,
2013-06-14 11:46:00,84.8,72.2,30.02,SSE,158,6.9,6.9,66,0.00,,,0.00,WUHU216HW,2013-06-14 16:46:00,
2013-06-14 11:47:00,84.8,72.2,30.02,SSE,158,6.9,6.9,66,0.00,,,0.00,WUHU216HW,2013-06-14 16:47:00,
2013-06-14 11:49:00,85.3,72.2,30.02,South,180,8.9,8.9,65,0.00,,,0.00,WUHU216HW,2013-06-14 16:49:00,
2013-06-14 11:51:00,85.3,71.7,30.02,SSE,158,10.5,11.6,64,0.00,,,0.00,WUHU216HW,2013-06-14 16:51:00,
2013-06-14 11:52:00,85.3,71.7,30.02,SSE,158,10.5,11.6,64,0.00,,,0.00,WUHU216HW,2013-06-14 16:52:00,
2013-06-14 11:54:00,85.9,73.2,30.02,SSW,203,5.6,11.6,66,0.00,,,0.00,WUHU216HW,2013-06-14 16:54:00,
2013-06-14 11:55:00,85.9,71.8,30.02,South,180,6.5,11.6,63,0.00,,,0.00,WUHU216HW,2013-06-14 16:55:00,
2013-06-14 11:57:00,85.9,71.8,30.02,South,180,6.5,11.6,63,0.00,,,0.00,WUHU216HW,2013-06-14 16:57:00,
2013-06-14 12:00:00,85.0,71.9,30.02,SSE,158,6.9,11.6,65,0.00,,,0.00,WUHU216HW,2013-06-14 17:00:00,
2013-06-14 12:01:00,85.0,71.9,30.02,SSE,158,6.9,9.8,65,0.00,,,0.00,WUHU216HW,2013-06-14 17:01:00,
2013-06-14 12:02:00,85.0,71.9,30.02,SSE,158,6.9,9.8,65,0.00,,,0.00,WUHU216HW,2013-06-14 17:02:00,
2013-06-14 12:03:00,84.8,72.6,30.02,SE,135,8.1,8.5,67,0.00,,,0.00,WUHU216HW,2013-06-14 17:03:00,
2013-06-14 12:04:00,84.8,73.5,30.02,ESE,113,3.8,8.5,69,0.00,,,0.00,WUHU216HW,2013-06-14 17:04:00,
2013-06-14 12:07:00,85.0,71.9,30.01,SSE,158,7.8,10.5,65,0.00,,,0.00,WUHU216HW,2013-06-14 17:07:00,
2013-06-14 12:08:00,85.0,72.4,30.02,SE,135,6.3,10.5,66,0.00,,,0.00,WUHU216HW,2013-06-14 17:08:00,
2013-06-14 12:09:00,85.0,71.9,30.02,SE,135,7.4,10.5,65,0.00,,,0.00,WUHU216HW,2013-06-14 17:09:00,
2013-06-14 12:11:00,85.3,73.6,30.02,SSE,158,8.5,10.5,68,0.00,,,0.00,WUHU216HW,2013-06-14 17:11:00,
2013-06-14 12:12:00,85.5,72.4,30.02,SSE,158,6.7,10.5,65,0.00,,,0.00,WUHU216HW,2013-06-14 17:12:00,
2013-06-14 12:14:00,85.5,73.4,30.02,SE,135,6.5,10.5,67,0.00,,,0.00,WUHU216HW,2013-06-14 17:14:00,
2013-06-14 12:15:00,85.9,73.2,30.01,SE,135,7.2,10.5,66,0.00,,,0.00,WUHU216HW,2013-06-14 17:15:00,
2013-06-14 12:16:00,86.0,74.4,30.01,SE,135,3.6,8.5,68,0.00,,,0.00,WUHU216HW,2013-06-14 17:16:00,
2013-06-14 12:17:00,86.0,74.4,30.01,SE,135,3.6,8.5,68,0.00,,,0.00,WUHU216HW,2013-06-14 17:17:00,
2013-06-14 12:18:00,86.8,73.6,30.01,SSW,203,7.8,8.5,65,0.00,,,0.00,WUHU216HW,2013-06-14 17:18:00,
2013-06-14 12:19:00,87.1,73.4,30.01,SSW,203,7.6,8.5,64,0.00,,,0.00,WUHU216HW,2013-06-14 17:19:00,
2013-06-14 12:22:00,88.0,73.9,30.01,SSE,158,6.5,7.8,63,0.00,,,0.00,WUHU216HW,2013-06-14 17:22:00,
2013-06-14 12:24:00,88.2,73.2,30.01,South,180,11.4,11.4,61,0.00,,,0.00,WUHU216HW,2013-06-14 17:24:00,
2013-06-14 12:25:00,88.0,73.9,30.01,SE,135,7.2,11.4,63,0.00,,,0.00,WUHU216HW,2013-06-14 17:25:00,
2013-06-14 12:27:00,87.8,74.2,30.01,SSE,158,7.6,11.4,64,0.00,,,0.00,WUHU216HW,2013-06-14 17:27:00,
2013-06-14 12:28:00,87.8,74.2,30.01,SSE,158,7.6,11.4,64,0.00,,,0.00,WUHU216HW,2013-06-14 17:28:00,
2013-06-14 12:29:00,88.2,73.6,30.01,WSW,248,5.4,11.4,62,0.00,,,0.00,WUHU216HW,2013-06-14 17:29:00,
2013-06-14 12:31:00,88.6,73.9,30.01,South,180,3.4,11.4,62,0.00,,,0.00,WUHU216HW,2013-06-14 17:31:00,
2013-06-14 12:32:00,88.6,73.9,30.01,South,180,3.4,11.4,62,0.00,,,0.00,WUHU216HW,2013-06-14 17:32:00,
2013-06-14 12:33:00,88.6,73.9,30.01,South,180,3.4,11.4,62,0.00,,,0.00,WUHU216HW,2013-06-14 17:33:00,
2013-06-14 12:35:00,89.1,74.0,30.01,SSE,158,5.1,8.7,61,0.00,,,0.00,WUHU216HW,2013-06-14 17:35:00,
2013-06-14 12:36:00,89.1,74.0,30.01,SSE,158,5.1,6.3,61,0.00,,,0.00,WUHU216HW,2013-06-14 17:36:00,
2013-06-14 12:38:00,89.1,74.0,30.01,SSE,158,5.1,6.3,61,0.00,,,0.00,WUHU216HW,2013-06-14 17:38:00,
2013-06-14 12:40:00,89.1,73.0,30.01,South,180,5.4,6.3,59,0.00,,,0.00,WUHU216HW,2013-06-14 17:40:00,
2013-06-14 12:43:00,88.9,73.8,30.01,SSE,158,8.5,8.5,61,0.00,,,0.00,WUHU216HW,2013-06-14 17:43:00,
2013-06-14 12:44:00,88.9,74.3,30.00,SSE,158,7.8,8.5,62,0.00,,,0.00,WUHU216HW,2013-06-14 17:44:00,
2013-06-14 12:45:00,88.7,74.5,30.00,South,180,7.6,8.5,63,0.00,,,0.00,WUHU216HW,2013-06-14 17:45:00,
2013-06-14 12:47:00,88.7,74.1,30.00,SSE,158,6.0,8.5,62,0.00,,,0.00,WUHU216HW,2013-06-14 17:47:00,
2013-06-14 12:48:00,88.7,74.1,30.00,SSE,158,6.0,8.5,62,0.00,,,0.00,WUHU216HW,2013-06-14 17:48:00,
2013-06-14 12:50:00,88.7,74.5,30.00,South,180,5.8,8.5,63,0.00,,,0.00,WUHU216HW,2013-06-14 17:50:00,
2013-06-14 12:51:00,88.7,74.5,30.00,South,180,5.8,8.5,63,0.00,,,0.00,WUHU216HW,2013-06-14 17:51:00,
2013-06-14 12:54:00,88.7,74.5,30.01,South,180,5.8,8.5,63,0.00,,,0.00,WUHU216HW,2013-06-14 17:54:00,
2013-06-14 12:56:00,89.3,74.2,30.00,SSE,158,7.2,8.5,61,0.00,,,0.00,WUHU216HW,2013-06-14 17:56:00,
2013-06-14 12:59:00,89.1,74.0,30.00,SE,135,6.3,8.5,61,0.00,,,0.00,WUHU216HW,2013-06-14 17:59:00,
2013-06-14 13:01:00,88.9,73.4,30.01,SSW,203,6.0,8.5,60,0.00,,,0.00,WUHU216HW,2013-06-14 18:01:00,
2013-06-14 13:04:00,88.9,73.4,30.01,SW,225,4.9,8.5,60,0.00,,,0.00,WUHU216HW,2013-06-14 18:04:00,
2013-06-14 13:05:00,88.9,73.4,30.01,SW,225,4.9,8.5,60,0.00,,,0.00,WUHU216HW,2013-06-14 18:05:00,
2013-06-14 13:07:00,89.8,74.2,30.01,South,180,9.2,9.2,60,0.00,,,0.00,WUHU216HW,2013-06-14 18:07:00,
2013-06-14 13:09:00,89.8,74.2,30.01,South,180,9.2,9.2,60,0.00,,,0.00,WUHU216HW,2013-06-14 18:09:00,
2013-06-14 13:12:00,88.9,74.3,30.00,SSE,158,4.7,9.2,62,0.00,,,0.00,WUHU216HW,2013-06-14 18:12:00,
2013-06-14 13:13:00,88.7,74.5,30.00,SSW,203,8.5,9.2,63,0.00,,,0.00,WUHU216HW,2013-06-14 18:13:00,
2013-06-14 13:14:00,88.7,74.5,30.00,SSW,203,8.5,9.2,63,0.00,,,0.00,WUHU216HW,2013-06-14 18:14:00,
2013-06-14 13:15:00,89.1,74.0,30.00,South,180,6.9,9.2,61,0.00,,,0.00,WUHU216HW,2013-06-14 18:15:00,
2013-06-14 13:16:00,89.3,74.6,30.00,SSE,158,6.9,9.2,62,0.00,,,0.00,WUHU216HW,2013-06-14 18:16:00,
2013-06-14 13:18:00,89.3,74.2,30.00,South,180,4.9,9.2,61,0.00,,,0.00,WUHU216HW,2013-06-14 18:18:00,
2013-06-14 13:19:00,89.3,74.2,30.00,South,180,4.9,9.2,61,0.00,,,0.00,WUHU216HW,2013-06-14 18:19:00,
2013-06-14 13:20:00,89.1,73.5,30.00,SE,135,4.5,8.5,60,0.00,,,0.00,WUHU216HW,2013-06-14 18:20:00,
2013-06-14 13:24:00,89.3,75.1,30.00,SSW,203,9.4,9.4,63,0.00,,,0.00,WUHU216HW,2013-06-14 18:24:00,
2013-06-14 13:28:00,89.8,73.6,30.00,South,180,1.8,9.4,59,0.00,,,0.00,WUHU216HW,2013-06-14 18:28:00,
2013-06-14 13:29:00,89.8,73.6,30.00,South,180,1.8,9.4,59,0.00,,,0.00,WUHU216HW,2013-06-14 18:29:00,
2013-06-14 13:31:00,90.4,73.5,30.00,SE,135,5.1,9.4,58,0.00,,,0.00,WUHU216HW,2013-06-14 18:31:00,
2013-06-14 13:34:00,90.4,73.5,30.00,SE,135,5.1,9.4,58,0.00,,,0.00,WUHU216HW,2013-06-14 18:34:00,
2013-06-14 13:39:00,89.5,73.8,30.00,SSE,158,4.9,5.6,60,0.00,,,0.00,WUHU216HW,2013-06-14 18:39:00,
2013-06-14 13:41:00,90.2,73.4,29.99,SSE,158,4.0,5.6,58,0.00,,,0.00,WUHU216HW,2013-06-14 18:41:00,
2013-06-14 13:43:00,90.5,74.3,29.99,South,180,3.6,5.6,59,0.00,,,0.00,WUHU216HW,2013-06-14 18:43:00,
2013-06-14 13:44:00,90.5,74.3,29.99,South,180,3.6,5.6,59,0.00,,,0.00,WUHU216HW,2013-06-14 18:44:00,
2013-06-14 13:45:00,91.4,75.1,29.99,WNW,293,5.4,5.4,59,0.00,,,0.00,WUHU216HW,2013-06-14 18:45:00,
2013-06-14 13:47:00,91.4,75.1,30.00,WNW,293,5.4,5.4,59,0.00,,,0.00,WUHU216HW,2013-06-14 18:47:00,
2013-06-14 13:49:00,91.3,73.3,30.00,SSW,203,4.3,5.4,56,0.00,,,0.00,WUHU216HW,2013-06-14 18:49:00,
2013-06-14 13:51:00,91.3,73.8,30.00,SW,225,2.5,5.4,57,0.00,,,0.00,WUHU216HW,2013-06-14 18:51:00,
2013-06-14 13:52:00,91.3,73.8,30.00,SW,225,2.5,5.4,57,0.00,,,0.00,WUHU216HW,2013-06-14 18:52:00,
2013-06-14 13:54:00,91.4,74.0,29.99,SW,225,3.1,6.3,57,0.00,,,0.00,WUHU216HW,2013-06-14 18:54:00,
2013-06-14 13:55:00,91.4,74.0,30.00,SW,225,2.7,6.3,57,0.00,,,0.00,WUHU216HW,2013-06-14 18:55:00,
2013-06-14 13:56:00,91.4,73.4,29.99,WSW,248,5.6,6.3,56,0.00,,,0.00,WUHU216HW,2013-06-14 18:56:00,
2013-06-14 13:58:00,91.4,73.4,29.99,SW,225,4.5,6.9,56,0.00,,,0.00,WUHU216HW,2013-06-14 18:58:00,
2013-06-14 13:59:00,91.4,73.4,29.99,SW,225,4.5,6.9,56,0.00,,,0.00,WUHU216HW,2013-06-14 18:59:00,
2013-06-14 14:00:00,91.4,73.4,29.99,SSW,203,4.0,6.9,56,0.00,,,0.00,WUHU216HW,2013-06-14 19:00:00,
2013-06-14 14:02:00,91.6,73.6,29.99,SW,225,5.4,6.9,56,0.00,,,0.00,WUHU216HW,2013-06-14 19:02:00,
2013-06-14 14:04:00,91.4,72.9,29.99,SSW,203,4.0,6.9,55,0.00,,,0.00,WUHU216HW,2013-06-14 19:04:00,
2013-06-14 14:06:00,91.8,73.8,29.99,NW,315,6.3,6.9,56,0.00,,,0.00,WUHU216HW,2013-06-14 19:06:00,
2013-06-14 14:07:00,91.8,73.8,29.99,SW,225,5.6,6.9,56,0.00,,,0.00,WUHU216HW,2013-06-14 19:07:00,
2013-06-14 14:08:00,91.8,73.8,30.00,West,270,6.3,6.3,56,0.00,,,0.00,WUHU216HW,2013-06-14 19:08:00,
2013-06-14 14:10:00,91.8,73.8,30.00,West,270,6.3,6.3,56,0.00,,,0.00,WUHU216HW,2013-06-14 19:10:00,
2013-06-14 14:13:00,91.8,73.8,29.99,WSW,248,4.5,6.3,56,0.00,,,0.00,WUHU216HW,2013-06-14 19:13:00,
2013-06-14 14:14:00,91.8,73.8,29.99,WSW,248,4.5,6.3,56,0.00,,,0.00,WUHU216HW,2013-06-14 19:14:00,
2013-06-14 14:15:00,91.8,73.8,29.99,WSW,248,4.5,6.3,56,0.00,,,0.00,WUHU216HW,2013-06-14 19:15:00,
2013-06-14 14:16:00,92.0,74.0,29.99,WSW,248,3.4,6.3,56,0.00,,,0.00,WUHU216HW,2013-06-14 19:16:00,
2013-06-14 14:18:00,92.0,74.0,29.99,WSW,248,3.4,6.3,56,0.00,,,0.00,WUHU216HW,2013-06-14 19:18:00,
2013-06-14 14:20:00,91.8,73.3,29.99,SSW,203,4.7,4.7,55,0.00,,,0.00,WUHU216HW,2013-06-14 19:20:00,
2013-06-14 14:21:00,91.8,74.4,29.99,SSW,203,4.9,4.9,57,0.00,,,0.00,WUHU216HW,2013-06-14 19:21:00,
2013-06-14 14:22:00,91.8,73.8,29.99,WSW,248,2.9,4.9,56,0.00,,,0.00,WUHU216HW,2013-06-14 19:22:00,
2013-06-14 14:24:00,92.2,74.2,29.99,SSW,203,4.0,4.9,56,0.00,,,0.00,WUHU216HW,2013-06-14 19:24:00,
2013-06-14 14:25:00,92.2,74.2,29.99,SSW,203,4.0,4.9,56,0.00,,,0.00,WUHU216HW,2013-06-14 19:25:00,
2013-06-14 14:26:00,92.2,73.1,29.99,SSE,158,2.5,4.9,54,0.00,,,0.00,WUHU216HW,2013-06-14 19:26:00,
2013-06-14 14:27:00,92.2,73.1,29.99,SSE,158,2.5,4.9,54,0.00,,,0.00,WUHU216HW,2013-06-14 19:27:00,
2013-06-14 14:29:00,92.2,73.1,29.99,SSE,158,2.5,4.9,54,0.00,,,0.00,WUHU216HW,2013-06-14 19:29:00,
2013-06-14 14:30:00,92.2,73.1,29.99,SSE,158,2.5,4.9,54,0.00,,,0.00,WUHU216HW,2013-06-14 19:30:00,
2013-06-14 14:32:00,92.5,73.9,29.99,SSW,203,8.1,8.1,55,0.00,,,0.00,WUHU216HW,2013-06-14 19:32:00,
2013-06-14 14:33:00,92.5,73.9,29.99,SSW,203,8.7,8.7,55,0.00,,,0.00,WUHU216HW,2013-06-14 19:33:00,
2013-06-14 14:34:00,92.3,74.4,29.99,South,180,5.4,8.7,56,0.00,,,0.00,WUHU216HW,2013-06-14 19:34:00,
2013-06-14 14:35:00,92.3,74.4,29.99,South,180,5.4,8.7,56,0.00,,,0.00,WUHU216HW,2013-06-14 19:35:00,
2013-06-14 14:36:00,92.5,74.5,29.99,West,270,1.1,8.7,56,0.00,,,0.00,WUHU216HW,2013-06-14 19:36:00,
2013-06-14 14:37:00,92.5,74.5,29.99,West,270,1.1,8.7,56,0.00,,,0.00,WUHU216HW,2013-06-14 19:37:00,
2013-06-14 14:40:00,93.4,75.3,29.99,ESE,113,6.9,8.7,56,0.00,,,0.00,WUHU216HW,2013-06-14 19:40:00,
2013-06-14 14:41:00,92.9,74.8,29.99,SE,135,6.9,8.7,56,0.00,,,0.00,WUHU216HW,2013-06-14 19:41:00,
2013-06-14 14:43:00,92.5,73.9,29.99,South,180,4.0,6.9,55,0.00,,,0.00,WUHU216HW,2013-06-14 19:43:00,
2013-06-14 14:45:00,92.3,73.8,29.99,SSE,158,4.5,6.9,55,0.00,,,0.00,WUHU216HW,2013-06-14 19:45:00,
2013-06-14 14:46:00,92.2,74.2,29.99,South,180,2.5,6.9,56,0.00,,,0.00,WUHU216HW,2013-06-14 19:46:00,
2013-06-14 14:48:00,92.3,74.4,29.99,SSE,158,4.5,6.9,56,0.00,,,0.00,WUHU216HW,2013-06-14 19:48:00,
2013-06-14 14:49:00,92.3,74.4,29.99,SSE,158,4.5,6.9,56,0.00,,,0.00,WUHU216HW,2013-06-14 19:49:00,
2013-06-14 14:50:00,92.3,74.4,29.99,SSE,158,4.5,6.9,56,0.00,,,0.00,WUHU216HW,2013-06-14 19:50:00,
2013-06-14 14:51:00,92.9,73.7,29.99,SSE,158,5.6,5.6,54,0.00,,,0.00,WUHU216HW,2013-06-14 19:51:00,
2013-06-14 14:53:00,92.5,73.4,29.99,SSW,203,2.5,6.3,54,0.00,,,0.00,WUHU216HW,2013-06-14 19:53:00,
2013-06-14 14:55:00,92.5,73.9,29.99,WSW,248,1.6,6.3,55,0.00,,,0.00,WUHU216HW,2013-06-14 19:55:00,
2013-06-14 14:57:00,92.5,73.9,29.98,WSW,248,1.6,6.3,55,0.00,,,0.00,WUHU216HW,2013-06-14 19:57:00,
2013-06-14 14:58:00,93.6,74.4,29.98,SSE,158,5.8,6.3,54,0.00,,,0.00,WUHU216HW,2013-06-14 19:58:00,
2013-06-14 15:00:00,93.2,73.5,29.98,SSW,203,5.4,6.3,53,0.00,,,0.00,WUHU216HW,2013-06-14 20:00:00,
2013-06-14 15:01:00,93.2,73.5,29.98,SSW,203,5.4,6.3,53,0.00,,,0.00,WUHU216HW,2013-06-14 20:01:00,
2013-06-14 15:03:00,93.4,74.3,29.98,WSW,248,2.5,6.3,54,0.00,,,0.00,WUHU216HW,2013-06-14 20:03:00,
2013-06-14 15:06:00,93.8,73.4,29.98,SSE,158,4.0,6.3,52,0.00,,,0.00,WUHU216HW,2013-06-14 20:06:00,
2013-06-14 15:09:00,93.2,73.5,29.98,ESE,113,2.7,6.3,53,0.00,,,0.00,WUHU216HW,2013-06-14 20:09:00,
2013-06-14 15:11:00,93.4,73.7,29.98,ESE,113,0.7,6.3,53,0.00,,,0.00,WUHU216HW,2013-06-14 20:11:00,
2013-06-14 15:13:00,93.4,73.7,29.98,SSE,158,0.7,6.3,53,0.00,,,0.00,WUHU216HW,2013-06-14 20:13:00,
2013-06-14 15:15:00,94.3,74.0,29.98,SSW,203,4.3,6.3,52,0.00,,,0.00,WUHU216HW,2013-06-14 20:15:00,
2013-06-14 15:16:00,94.3,74.0,29.98,SSW,203,4.3,6.3,52,0.00,,,0.00,WUHU216HW,2013-06-14 20:16:00,
2013-06-14 15:17:00,94.5,74.7,29.98,SSW,203,2.5,6.3,53,0.00,,,0.00,WUHU216HW,2013-06-14 20:17:00,
2013-06-14 15:18:00,94.5,74.7,29.98,SSW,203,2.5,4.3,53,0.00,,,0.00,WUHU216HW,2013-06-14 20:18:00,
2013-06-14 15:20:00,94.7,74.3,29.98,WSW,248,5.6,5.6,52,0.00,,,0.00,WUHU216HW,2013-06-14 20:20:00,
2013-06-14 15:21:00,94.7,73.8,29.98,SW,225,4.0,5.6,51,0.00,,,0.00,WUHU216HW,2013-06-14 20:21:00,
2013-06-14 15:23:00,94.7,73.8,29.97,SSW,203,3.4,5.6,51,0.00,,,0.00,WUHU216HW,2013-06-14 20:23:00,
2013-06-14 15:25:00,94.5,73.6,29.97,SSW,203,6.0,6.0,51,0.00,,,0.00,WUHU216HW,2013-06-14 20:25:00,
2013-06-14 15:26:00,94.5,73.6,29.97,SSW,203,6.0,6.0,51,0.00,,,0.00,WUHU216HW,2013-06-14 20:26:00,
2013-06-14 15:27:00,94.1,72.7,29.97,SSE,158,2.9,6.0,50,0.00,,,0.00,WUHU216HW,2013-06-14 20:27:00,
2013-06-14 15:28:00,94.0,73.1,29.97,SSE,158,2.5,6.0,51,0.00,,,0.00,WUHU216HW,2013-06-14 20:28:00,
2013-06-14 15:29:00,94.0,75.3,29.97,South,180,6.0,6.0,55,0.00,,,0.00,WUHU216HW,2013-06-14 20:29:00,
2013-06-14 15:31:00,93.6,73.3,29.97,SE,135,4.7,7.6,52,0.00,,,0.00,WUHU216HW,2013-06-14 20:31:00,
2013-06-14 15:32:00,93.2,74.1,29.97,SSE,158,4.9,7.6,54,0.00,,,0.00,WUHU216HW,2013-06-14 20:32:00,
2013-06-14 15:33:00,93.1,72.8,29.97,SSW,203,1.3,7.6,52,0.00,,,0.00,WUHU216HW,2013-06-14 20:33:00,
2013-06-14 15:35:00,93.2,72.9,29.97,SE,135,2.7,7.6,52,0.00,,,0.00,WUHU216HW,2013-06-14 20:35:00,
2013-06-14 15:36:00,93.6,74.4,29.97,SSE,158,3.6,7.6,54,0.00,,,0.00,WUHU216HW,2013-06-14 20:36:00,
2013-06-14 15:37:00,93.6,74.4,29.97,SSE,158,3.6,7.6,54,0.00,,,0.00,WUHU216HW,2013-06-14 20:37:00,
2013-06-14 15:39:00,93.6,73.8,29.97,SSE,158,2.9,7.6,53,0.00,,,0.00,WUHU216HW,2013-06-14 20:39:00,
2013-06-14 15:41:00,93.4,72.5,29.97,South,180,3.4,6.7,51,0.00,,,0.00,WUHU216HW,2013-06-14 20:41:00,
2013-06-14 15:42:00,93.4,72.5,29.97,South,180,3.4,6.7,51,0.00,,,0.00,WUHU216HW,2013-06-14 20:42:00,
2013-06-14 15:43:00,93.4,72.5,29.97,South,180,3.4,6.7,51,0.00,,,0.00,WUHU216HW,2013-06-14 20:43:00,
2013-06-14 15:46:00,95.2,74.4,29.97,SSE,158,1.3,6.7,51,0.00,,,0.00,WUHU216HW,2013-06-14 20:46:00,
2013-06-14 15:47:00,95.2,74.4,29.97,SSE,158,1.3,6.7,51,0.00,,,0.00,WUHU216HW,2013-06-14 20:47:00,
2013-06-14 15:48:00,94.9,75.1,29.97,ESE,113,3.4,4.0,53,0.00,,,0.00,WUHU216HW,2013-06-14 20:48:00,
2013-06-14 15:49:00,94.7,76.0,29.97,SSE,158,5.4,5.4,55,0.00,,,0.00,WUHU216HW,2013-06-14 20:49:00,
2013-06-14 15:50:00,94.5,74.2,29.97,SW,225,4.0,5.4,52,0.00,,,0.00,WUHU216HW,2013-06-14 20:50:00,
2013-06-14 15:52:00,94.5,74.2,29.97,SW,225,4.0,5.4,52,0.00,,,0.00,WUHU216HW,2013-06-14 20:52:00,
2013-06-14 15:55:00,94.5,73.6,29.97,SE,135,5.8,5.8,51,0.00,,,0.00,WUHU216HW,2013-06-14 20:55:00,
2013-06-14 15:56:00,94.5,73.6,29.97,SE,135,5.8,5.8,51,0.00,,,0.00,WUHU216HW,2013-06-14 20:56:00,
2013-06-14 15:57:00,94.5,73.6,29.97,SE,135,5.8,5.8,51,0.00,,,0.00,WUHU216HW,2013-06-14 20:57:00,
2013-06-14 15:59:00,93.2,74.6,29.97,SSE,158,6.3,6.3,55,0.00,,,0.00,WUHU216HW,2013-06-14 20:59:00,
2013-06-14 16:01:00,93.2,75.7,29.97,SSE,158,4.5,6.3,57,0.00,,,0.00,WUHU216HW,2013-06-14 21:01:00,
2013-06-14 16:02:00,93.2,75.7,29.97,SSE,158,4.5,6.3,57,0.00,,,0.00,WUHU216HW,2013-06-14 21:02:00,
2013-06-14 16:03:00,93.2,74.6,29.97,South,180,8.5,8.5,55,0.00,,,0.00,WUHU216HW,2013-06-14 21:03:00,
2013-06-14 16:04:00,93.2,74.6,29.97,South,180,8.5,8.5,55,0.00,,,0.00,WUHU216HW,2013-06-14 21:04:00,
2013-06-14 16:06:00,92.2,73.6,29.97,SSE,158,4.9,8.5,55,0.00,,,0.00,WUHU216HW,2013-06-14 21:06:00,
2013-06-14 16:07:00,92.2,73.6,29.97,SSE,158,4.9,8.5,55,0.00,,,0.00,WUHU216HW,2013-06-14 21:07:00,
2013-06-14 16:08:00,92.2,73.6,29.96,SSE,158,4.9,8.5,55,0.00,,,0.00,WUHU216HW,2013-06-14 21:08:00,
2013-06-14 16:09:00,92.2,73.6,29.96,SSE,158,4.9,8.5,55,0.00,,,0.00,WUHU216HW,2013-06-14 21:09:00,
2013-06-14 16:10:00,92.2,73.6,29.96,SSE,158,4.9,8.5,55,0.00,,,0.00,WUHU216HW,2013-06-14 21:10:00,
2013-06-14 16:12:00,92.7,74.6,29.96,SSW,203,2.5,8.5,56,0.00,,,0.00,WUHU216HW,2013-06-14 21:12:00,
2013-06-14 16:13:00,92.7,74.6,29.96,SSW,203,2.5,8.5,56,0.00,,,0.00,WUHU216HW,2013-06-14 21:13:00,
2013-06-14 16:17:00,94.0,73.6,29.96,South,180,0.7,4.9,52,0.00,,,0.00,WUHU216HW,2013-06-14 21:17:00,
2013-06-14 16:19:00,94.3,73.4,29.96,South,180,5.6,5.6,51,0.00,,,0.00,WUHU216HW,2013-06-14 21:19:00,
2013-06-14 16:21:00,94.3,73.4,29.96,South,180,2.7,5.6,51,0.00,,,0.00,WUHU216HW,2013-06-14 21:21:00,
2013-06-14 16:22:00,94.3,73.4,29.96,South,180,2.7,5.6,51,0.00,,,0.00,WUHU216HW,2013-06-14 21:22:00,
2013-06-14 16:24:00,94.5,74.2,29.96,South,180,3.1,6.0,52,0.00,,,0.00,WUHU216HW,2013-06-14 21:24:00,
2013-06-14 16:25:00,94.5,74.2,29.96,South,180,3.1,6.0,52,0.00,,,0.00,WUHU216HW,2013-06-14 21:25:00,
2013-06-14 16:27:00,94.5,74.2,29.96,South,180,3.1,6.0,52,0.00,,,0.00,WUHU216HW,2013-06-14 21:27:00,
2013-06-14 16:31:00,94.3,74.5,29.96,South,180,4.9,6.0,53,0.00,,,0.00,WUHU216HW,2013-06-14 21:31:00,
2013-06-14 16:32:00,95.0,75.2,29.95,SSW,203,2.5,6.0,53,0.00,,,0.00,WUHU216HW,2013-06-14 21:32:00,
2013-06-14 16:35:00,95.4,74.5,29.95,SE,135,2.2,4.9,51,0.00,,,0.00,WUHU216HW,2013-06-14 21:35:00,
2013-06-14 16:36:00,95.6,74.1,29.95,SSW,203,3.4,4.9,50,0.00,,,0.00,WUHU216HW,2013-06-14 21:36:00,
2013-06-14 16:37:00,95.6,74.1,29.95,SSW,203,3.4,4.9,50,0.00,,,0.00,WUHU216HW,2013-06-14 21:37:00,
2013-06-14 16:38:00,95.2,73.8,29.95,SSW,203,4.0,5.4,50,0.00,,,0.00,WUHU216HW,2013-06-14 21:38:00,
2013-06-14 16:39:00,95.0,74.2,29.95,South,180,5.4,5.4,51,0.00,,,0.00,WUHU216HW,2013-06-14 21:39:00,
2013-06-14 16:42:00,94.9,74.0,29.95,SW,225,5.6,6.7,51,0.00,,,0.00,WUHU216HW,2013-06-14 21:42:00,
2013-06-14 16:43:00,94.9,74.0,29.95,South,180,5.4,6.7,51,0.00,,,0.00,WUHU216HW,2013-06-14 21:43:00,
2013-06-14 16:44:00,95.0,73.6,29.95,SSW,203,6.3,6.7,50,0.00,,,0.00,WUHU216HW,2013-06-14 21:44:00,
2013-06-14 16:45:00,94.9,73.4,29.95,SW,225,4.0,6.7,50,0.00,,,0.00,WUHU216HW,2013-06-14 21:45:00,
2013-06-14 16:47:00,94.7,73.8,29.95,South,180,4.7,6.7,51,0.00,,,0.00,WUHU216HW,2013-06-14 21:47:00,
2013-06-14 16:48:00,94.5,73.6,29.95,South,180,5.4,6.7,51,0.00,,,0.00,WUHU216HW,2013-06-14 21:48:00,
2013-06-14 16:52:00,95.0,74.7,29.95,SSE,158,1.8,6.3,52,0.00,,,0.00,WUHU216HW,2013-06-14 21:52:00,
2013-06-14 16:53:00,95.4,74.5,29.95,SSW,203,2.0,6.3,51,0.00,,,0.00,WUHU216HW,2013-06-14 21:53:00,
2013-06-14 16:56:00,95.4,73.3,29.95,SSE,158,4.0,5.8,49,0.00,,,0.00,WUHU216HW,2013-06-14 21:56:00,
2013-06-14 16:57:00,95.4,73.3,29.95,SSE,158,4.0,5.8,49,0.00,,,0.00,WUHU216HW,2013-06-14 21:57:00,
2013-06-14 17:01:00,93.6,73.3,29.95,SSE,158,8.1,8.1,52,0.00,,,0.00,WUHU216HW,2013-06-14 22:01:00,
2013-06-14 17:03:00,93.6,73.3,29.95,SSE,158,8.1,8.1,52,0.00,,,0.00,WUHU216HW,2013-06-14 22:03:00,
2013-06-14 17:04:00,92.2,74.2,29.95,SSE,158,6.9,8.1,56,0.00,,,0.00,WUHU216HW,2013-06-14 22:04:00,
2013-06-14 17:05:00,92.2,73.6,29.95,South,180,10.3,10.3,55,0.00,,,0.00,WUHU216HW,2013-06-14 22:05:00,
2013-06-14 17:07:00,92.2,73.1,29.95,South,180,6.7,10.3,54,0.00,,,0.00,WUHU216HW,2013-06-14 22:07:00,
2013-06-14 17:08:00,92.2,73.1,29.95,South,180,6.7,10.3,54,0.00,,,0.00,WUHU216HW,2013-06-14 22:08:00,
2013-06-14 17:12:00,92.3,73.8,29.95,SE,135,5.1,10.3,55,0.00,,,0.00,WUHU216HW,2013-06-14 22:12:00,
2013-06-14 17:13:00,92.3,73.8,29.95,SE,135,5.1,10.3,55,0.00,,,0.00,WUHU216HW,2013-06-14 22:13:00,
2013-06-14 17:14:00,92.2,73.1,29.95,SE,135,5.4,10.3,54,0.00,,,0.00,WUHU216HW,2013-06-14 22:14:00,
2013-06-14 17:16:00,92.2,73.6,29.95,SE,135,6.3,6.9,55,0.00,,,0.00,WUHU216HW,2013-06-14 22:16:00,
2013-06-14 17:18:00,91.8,73.8,29.95,SSE,158,3.4,6.9,56,0.00,,,0.00,WUHU216HW,2013-06-14 22:18:00,
2013-06-14 17:20:00,92.0,74.0,29.95,SSE,158,6.9,6.9,56,0.00,,,0.00,WUHU216HW,2013-06-14 22:20:00,
2013-06-14 17:21:00,92.2,75.3,29.95,SE,135,6.0,6.9,58,0.00,,,0.00,WUHU216HW,2013-06-14 22:21:00,
2013-06-14 17:23:00,92.5,73.4,29.95,SSE,158,10.1,10.1,54,0.00,,,0.00,WUHU216HW,2013-06-14 22:23:00,
2013-06-14 17:25:00,92.3,73.2,29.95,SSE,158,8.7,10.1,54,0.00,,,0.00,WUHU216HW,2013-06-14 22:25:00,
2013-06-14 17:28:00,92.3,73.2,29.95,SSE,158,7.8,10.1,54,0.00,,,0.00,WUHU216HW,2013-06-14 22:28:00,
2013-06-14 17:31:00,92.5,73.4,29.95,SE,135,9.2,10.1,54,0.00,,,0.00,WUHU216HW,2013-06-14 22:31:00,
2013-06-14 17:32:00,92.5,73.4,29.94,SE,135,9.2,10.1,54,0.00,,,0.00,WUHU216HW,2013-06-14 22:32:00,
2013-06-14 17:33:00,92.5,73.4,29.94,SE,135,9.2,10.1,54,0.00,,,0.00,WUHU216HW,2013-06-14 22:33:00,
2013-06-14 17:34:00,92.5,73.4,29.95,SE,135,9.2,9.2,54,0.00,,,0.00,WUHU216HW,2013-06-14 22:34:00,
2013-06-14 17:36:00,92.7,73.5,29.95,South,180,5.1,9.2,54,0.00,,,0.00,WUHU216HW,2013-06-14 22:36:00,
2013-06-14 17:37:00,92.7,73.5,29.95,South,180,5.1,9.2,54,0.00,,,0.00,WUHU216HW,2013-06-14 22:37:00,
2013-06-14 17:38:00,92.7,73.5,29.95,South,180,5.1,9.2,54,0.00,,,0.00,WUHU216HW,2013-06-14 22:38:00,
2013-06-14 17:39:00,92.7,73.0,29.94,South,180,4.0,9.2,53,0.00,,,0.00,WUHU216HW,2013-06-14 22:39:00,
2013-06-14 17:40:00,92.7,73.0,29.94,SW,225,2.5,9.2,53,0.00,,,0.00,WUHU216HW,2013-06-14 22:40:00,
2013-06-14 17:43:00,92.7,72.5,29.94,SSW,203,6.0,9.2,52,0.00,,,0.00,WUHU216HW,2013-06-14 22:43:00,
2013-06-14 17:46:00,92.2,72.5,29.94,South,180,5.6,6.0,53,0.00,,,0.00,WUHU216HW,2013-06-14 22:46:00,
2013-06-14 17:48:00,92.2,72.5,29.94,South,180,5.6,6.0,53,0.00,,,0.00,WUHU216HW,2013-06-14 22:48:00,
2013-06-14 17:49:00,92.0,72.4,29.94,SSE,158,4.5,6.0,53,0.00,,,0.00,WUHU216HW,2013-06-14 22:49:00,
2013-06-14 17:51:00,92.0,72.4,29.94,SSE,158,4.5,6.0,53,0.00,,,0.00,WUHU216HW,2013-06-14 22:51:00,
2013-06-14 17:52:00,92.0,72.4,29.94,SSE,158,4.5,6.0,53,0.00,,,0.00,WUHU216HW,2013-06-14 22:52:00,
2013-06-14 17:53:00,92.0,72.4,29.94,SSE,158,4.5,6.0,53,0.00,,,0.00,WUHU216HW,2013-06-14 22:53:00,
2013-06-14 17:58:00,92.2,71.9,29.94,SSE,158,8.3,8.3,52,0.00,,,0.00,WUHU216HW,2013-06-14 22:58:00,
2013-06-14 18:03:00,92.5,72.8,29.94,South,180,6.3,8.3,53,0.00,,,0.00,WUHU216HW,2013-06-14 23:03:00,
2013-06-14 18:04:00,92.5,72.8,29.94,South,180,6.3,8.3,53,0.00,,,0.00,WUHU216HW,2013-06-14 23:04:00,
2013-06-14 18:05:00,92.3,72.1,29.94,South,180,6.3,8.3,52,0.00,,,0.00,WUHU216HW,2013-06-14 23:05:00,
2013-06-14 18:09:00,92.3,72.1,29.94,South,180,6.3,6.3,52,0.00,,,0.00,WUHU216HW,2013-06-14 23:09:00,
2013-06-14 18:10:00,92.3,72.1,29.94,SSE,158,6.0,6.3,52,0.00,,,0.00,WUHU216HW,2013-06-14 23:10:00,
2013-06-14 18:11:00,92.2,71.9,29.94,South,180,5.4,6.3,52,0.00,,,0.00,WUHU216HW,2013-06-14 23:11:00,
2013-06-14 18:14:00,92.2,71.9,29.94,South,180,6.7,6.7,52,0.00,,,0.00,WUHU216HW,2013-06-14 23:14:00,
2013-06-14 18:16:00,92.2,72.5,29.94,SSE,158,6.5,6.7,53,0.00,,,0.00,WUHU216HW,2013-06-14 23:16:00,
2013-06-14 18:17:00,92.2,71.9,29.94,SSE,158,7.4,7.4,52,0.00,,,0.00,WUHU216HW,2013-06-14 23:17:00,
2013-06-14 18:18:00,92.2,71.9,29.93,SSE,158,7.4,7.4,52,0.00,,,0.00,WUHU216HW,2013-06-14 23:18:00,
2013-06-14 18:19:00,92.2,71.9,29.93,SSE,158,7.4,7.4,52,0.00,,,0.00,WUHU216HW,2013-06-14 23:19:00,
2013-06-14 18:20:00,92.2,71.9,29.94,SSE,158,7.4,7.4,52,0.00,,,0.00,WUHU216HW,2013-06-14 23:20:00,
2013-06-14 18:21:00,91.8,71.7,29.94,SSE,158,8.1,8.1,52,0.00,,,0.00,WUHU216HW,2013-06-14 23:21:00,
2013-06-14 18:23:00,91.6,71.5,29.94,SSE,158,6.9,8.1,52,0.00,,,0.00,WUHU216HW,2013-06-14 23:23:00,
2013-06-14 18:24:00,91.6,71.5,29.94,SSE,158,6.9,8.1,52,0.00,,,0.00,WUHU216HW,2013-06-14 23:24:00,
2013-06-14 18:25:00,91.6,72.0,29.94,South,180,6.3,8.1,53,0.00,,,0.00,WUHU216HW,2013-06-14 23:25:00,
2013-06-14 18:27:00,91.6,72.0,29.94,South,180,6.3,8.1,53,0.00,,,0.00,WUHU216HW,2013-06-14 23:27:00,
2013-06-14 18:29:00,92.0,71.8,29.94,South,180,3.8,8.1,52,0.00,,,0.00,WUHU216HW,2013-06-14 23:29:00,
2013-06-14 18:30:00,92.0,71.8,29.93,South,180,3.8,8.1,52,0.00,,,0.00,WUHU216HW,2013-06-14 23:30:00,
2013-06-14 18:31:00,92.0,71.8,29.94,South,180,3.8,6.9,52,0.00,,,0.00,WUHU216HW,2013-06-14 23:31:00,
2013-06-14 18:33:00,92.0,72.9,29.93,SSW,203,3.1,6.3,54,0.00,,,0.00,WUHU216HW,2013-06-14 23:33:00,
2013-06-14 18:34:00,92.0,72.9,29.93,SSW,203,3.1,6.3,54,0.00,,,0.00,WUHU216HW,2013-06-14 23:34:00,
2013-06-14 18:35:00,92.0,72.9,29.94,SSW,203,3.1,6.3,54,0.00,,,0.00,WUHU216HW,2013-06-14 23:35:00,
2013-06-14 18:36:00,92.3,72.6,29.94,South,180,4.7,6.3,53,0.00,,,0.00,WUHU216HW,2013-06-14 23:36:00,
2013-06-14 18:39:00,92.5,72.8,29.94,SSE,158,4.0,4.7,53,0.00,,,0.00,WUHU216HW,2013-06-14 23:39:00,
2013-06-14 18:41:00,92.5,72.8,29.93,SSE,158,4.0,4.7,53,0.00,,,0.00,WUHU216HW,2013-06-14 23:41:00,
2013-06-14 18:42:00,92.5,72.8,29.94,SSE,158,4.0,4.7,53,0.00,,,0.00,WUHU216HW,2013-06-14 23:42:00,
2013-06-14 18:44:00,91.8,73.3,29.94,SE,135,3.4,6.3,55,0.00,,,0.00,WUHU216HW,2013-06-14 23:44:00,
2013-06-14 18:45:00,91.8,72.7,29.94,SSE,158,6.7,6.7,54,0.00,,,0.00,WUHU216HW,2013-06-14 23:45:00,
2013-06-14 18:49:00,91.6,73.1,29.94,South,180,3.6,6.7,55,0.00,,,0.00,WUHU216HW,2013-06-14 23:49:00,
2013-06-14 18:50:00,91.6,73.1,29.94,South,180,3.6,6.7,55,0.00,,,0.00,WUHU216HW,2013-06-14 23:50:00,
2013-06-14 18:51:00,91.6,73.1,29.94,South,180,4.9,6.7,55,0.00,,,0.00,WUHU216HW,2013-06-14 23:51:00,
2013-06-14 18:53:00,91.6,73.1,29.94,South,180,4.9,6.7,55,0.00,,,0.00,WUHU216HW,2013-06-14 23:53:00,
2013-06-14 18:55:00,91.6,73.1,29.93,South,180,4.9,6.7,55,0.00,,,0.00,WUHU216HW,2013-06-14 23:55:00,
2013-06-14 18:58:00,91.6,72.6,29.93,SSW,203,4.0,4.9,54,0.00,,,0.00,WUHU216HW,2013-06-14 23:58:00,
2013-06-14 18:59:00,91.6,72.6,29.93,SSW,203,4.0,4.9,54,0.00,,,0.00,WUHU216HW,2013-06-14 23:59:00,
2013-06-14 19:00:00,91.6,72.6,29.93,SSW,203,4.0,4.9,54,0.00,,,0.00,WUHU216HW,2013-06-15 00:00:00,
2013-06-14 19:01:00,91.3,72.7,29.94,SSW,203,3.4,4.9,55,0.00,,,0.00,WUHU216HW,2013-06-15 00:01:00,
2013-06-14 19:02:00,91.3,72.7,29.94,SSW,203,5.4,5.4,55,0.00,,,0.00,WUHU216HW,2013-06-15 00:02:00,
2013-06-14 19:04:00,91.1,72.5,29.94,South,180,5.4,6.3,55,0.00,,,0.00,WUHU216HW,2013-06-15 00:04:00,
2013-06-14 19:05:00,91.1,72.5,29.94,South,180,5.4,6.3,55,0.00,,,0.00,WUHU216HW,2013-06-15 00:05:00,
2013-06-14 19:06:00,91.1,72.5,29.94,South,180,5.4,6.3,55,0.00,,,0.00,WUHU216HW,2013-06-15 00:06:00,
2013-06-14 19:08:00,90.5,72.6,29.94,SSW,203,6.7,6.7,56,0.00,,,0.00,WUHU216HW,2013-06-15 00:08:00,
2013-06-14 19:09:00,90.5,72.6,29.94,SSW,203,6.7,6.7,56,0.00,,,0.00,WUHU216HW,2013-06-15 00:09:00,
2013-06-14 19:10:00,90.5,72.6,29.94,SSW,203,6.7,6.7,56,0.00,,,0.00,WUHU216HW,2013-06-15 00:10:00,
2013-06-14 19:13:00,90.4,73.0,29.94,SSE,158,5.6,6.7,57,0.00,,,0.00,WUHU216HW,2013-06-15 00:13:00,
2013-06-14 19:15:00,90.4,73.0,29.94,SSE,158,5.6,6.7,57,0.00,,,0.00,WUHU216HW,2013-06-15 00:15:00,
2013-06-14 19:16:00,90.4,73.0,29.94,South,180,6.7,6.7,57,0.00,,,0.00,WUHU216HW,2013-06-15 00:16:00,
2013-06-14 19:18:00,90.0,73.8,29.93,South,180,3.1,6.7,59,0.00,,,0.00,WUHU216HW,2013-06-15 00:18:00,
2013-06-14 19:20:00,90.0,73.3,29.94,South,180,6.3,6.7,58,0.00,,,0.00,WUHU216HW,2013-06-15 00:20:00,
2013-06-14 19:23:00,89.8,73.1,29.94,SSE,158,4.7,6.7,58,0.00,,,0.00,WUHU216HW,2013-06-15 00:23:00,
2013-06-14 19:25:00,89.8,73.1,29.94,SSE,158,4.7,6.7,58,0.00,,,0.00,WUHU216HW,2013-06-15 00:25:00,
2013-06-14 19:26:00,89.8,73.1,29.94,SSE,158,4.7,6.7,58,0.00,,,0.00,WUHU216HW,2013-06-15 00:26:00,
2013-06-14 19:27:00,89.6,72.9,29.94,SSE,158,6.3,6.3,58,0.00,,,0.00,WUHU216HW,2013-06-15 00:27:00,
2013-06-14 19:28:00,89.6,73.4,29.94,SSW,203,3.4,6.3,59,0.00,,,0.00,WUHU216HW,2013-06-15 00:28:00,
2013-06-14 19:30:00,89.6,73.4,29.94,South,180,5.6,6.3,59,0.00,,,0.00,WUHU216HW,2013-06-15 00:30:00,
2013-06-14 19:31:00,89.6,73.4,29.94,South,180,5.6,6.3,59,0.00,,,0.00,WUHU216HW,2013-06-15 00:31:00,
2013-06-14 19:34:00,89.3,73.1,29.94,SSW,203,3.6,6.3,59,0.00,,,0.00,WUHU216HW,2013-06-15 00:34:00,
2013-06-14 19:36:00,89.3,73.1,29.94,SSW,203,3.6,6.3,59,0.00,,,0.00,WUHU216HW,2013-06-15 00:36:00,
2013-06-14 19:38:00,89.3,73.6,29.94,South,180,2.0,5.6,60,0.00,,,0.00,WUHU216HW,2013-06-15 00:38:00,
2013-06-14 19:40:00,89.3,73.6,29.94,South,180,2.0,3.6,60,0.00,,,0.00,WUHU216HW,2013-06-15 00:40:00,
2013-06-14 19:41:00,89.3,73.6,29.94,South,180,2.0,3.6,60,0.00,,,0.00,WUHU216HW,2013-06-15 00:41:00,
2013-06-14 19:43:00,89.1,74.0,29.94,SSE,158,2.5,3.6,61,0.00,,,0.00,WUHU216HW,2013-06-15 00:43:00,
2013-06-14 21:00:00,76.5,71.6,29.99,SSE,158,2.7,2.7,85,0.00,,,0.00,WUHU216HW,2013-06-15 02:00:00,
2013-06-14 21:02:00,76.5,71.6,29.99,SE,135,2.7,2.9,85,0.00,,,0.00,WUHU216HW,2013-06-15 02:02:00,
2013-06-14 21:06:00,68.2,66.1,29.98,ESE,113,0.4,2.9,93,0.00,,,0.00,WUHU216HW,2013-06-15 02:06:00,
2013-06-14 21:07:00,68.2,66.1,29.98,ESE,113,0.4,2.9,93,0.59,,,0.59,WUHU216HW,2013-06-15 02:07:00,
2013-06-14 21:09:00,68.4,66.6,29.99,SE,135,3.1,3.1,94,0.59,,,0.59,WUHU216HW,2013-06-15 02:09:00,
2013-06-14 21:10:00,68.4,66.6,29.99,SSE,158,2.5,3.4,94,0.59,,,0.59,WUHU216HW,2013-06-15 02:10:00,
2013-06-14 21:11:00,68.6,66.8,29.99,SSE,158,4.3,4.3,94,0.59,,,0.59,WUHU216HW,2013-06-15 02:11:00,
2013-06-14 21:12:00,68.6,66.8,29.99,SSE,158,4.3,4.3,94,0.59,,,0.59,WUHU216HW,2013-06-15 02:12:00,
2013-06-14 21:13:00,68.6,66.8,29.99,SSE,158,4.9,4.9,94,0.59,,,0.59,WUHU216HW,2013-06-15 02:13:00,
2013-06-14 21:14:00,68.8,67.0,29.99,SSE,158,3.6,5.8,94,0.59,,,0.59,WUHU216HW,2013-06-15 02:14:00,
2013-06-14 21:15:00,68.8,66.6,29.99,SSE,158,5.8,5.8,93,0.59,,,0.59,WUHU216HW,2013-06-15 02:15:00,
2013-06-14 21:16:00,68.8,66.6,30.00,SSE,158,6.5,6.5,93,0.59,,,0.59,WUHU216HW,2013-06-15 02:16:00,
2013-06-14 21:17:00,68.8,66.6,30.00,South,180,5.4,6.5,93,0.59,,,0.59,WUHU216HW,2013-06-15 02:17:00,
2013-06-14 21:18:00,68.8,66.6,30.02,SW,225,13.0,13.0,93,0.59,,,0.59,WUHU216HW,2013-06-15 02:18:00,
2013-06-14 21:19:00,68.9,66.8,30.02,SW,225,9.2,13.0,93,0.59,,,0.59,WUHU216HW,2013-06-15 02:19:00,
2013-06-14 21:20:00,68.8,66.6,30.02,South,180,11.0,13.0,93,0.59,,,0.59,WUHU216HW,2013-06-15 02:20:00,
2013-06-14 21:21:00,68.8,66.6,30.03,South,180,11.0,13.0,93,0.59,,,0.59,WUHU216HW,2013-06-15 02:21:00,
2013-06-14 21:23:00,68.8,66.6,30.03,South,180,11.0,13.0,93,0.59,,,0.59,WUHU216HW,2013-06-15 02:23:00,
2013-06-14 21:24:00,68.8,66.6,30.03,South,180,12.8,13.0,93,0.59,,,0.59,WUHU216HW,2013-06-15 02:24:00,
2013-06-14 21:25:00,68.8,66.6,30.03,South,180,13.4,13.4,93,0.59,,,0.59,WUHU216HW,2013-06-15 02:25:00,
2013-06-14 21:26:00,68.8,66.6,30.03,SSW,203,14.3,14.3,93,0.59,,,0.59,WUHU216HW,2013-06-15 02:26:00,
2013-06-14 21:28:00,68.8,66.6,30.03,South,180,16.6,16.6,93,0.59,,,0.59,WUHU216HW,2013-06-15 02:28:00,
2013-06-14 21:29:00,68.9,66.8,30.03,South,180,12.1,16.6,93,0.59,,,0.59,WUHU216HW,2013-06-15 02:29:00,
2013-06-14 21:31:00,69.1,67.3,30.03,South,180,13.4,16.6,94,0.59,,,0.59,WUHU216HW,2013-06-15 02:31:00,
2013-06-14 21:32:00,69.1,67.3,30.03,South,180,12.8,16.6,94,0.59,,,0.59,WUHU216HW,2013-06-15 02:32:00,
2013-06-14 21:33:00,69.1,67.3,30.03,SSE,158,11.0,16.6,94,0.59,,,0.59,WUHU216HW,2013-06-15 02:33:00,
2013-06-14 21:35:00,69.3,67.5,30.02,South,180,14.5,16.6,94,0.59,,,0.59,WUHU216HW,2013-06-15 02:35:00,
2013-06-14 21:36:00,69.3,67.5,30.02,SSW,203,11.4,16.6,94,0.59,,,0.59,WUHU216HW,2013-06-15 02:36:00,
2013-06-14 21:37:00,69.3,67.5,30.02,SSE,158,10.7,16.6,94,0.59,,,0.59,WUHU216HW,2013-06-15 02:37:00,
2013-06-14 21:38:00,69.5,67.7,30.02,SSE,158,11.4,14.5,94,0.59,,,0.59,WUHU216HW,2013-06-15 02:38:00,
2013-06-14 21:39:00,69.5,67.7,30.02,South,180,13.4,14.5,94,0.59,,,0.59,WUHU216HW,2013-06-15 02:39:00,
2013-06-14 21:40:00,69.5,67.7,30.02,South,180,13.4,14.5,94,0.59,,,0.59,WUHU216HW,2013-06-15 02:40:00,
2013-06-14 21:41:00,69.5,67.7,30.02,South,180,13.4,14.5,94,0.59,,,0.59,WUHU216HW,2013-06-15 02:41:00,
2013-06-14 21:43:00,69.5,67.7,30.02,South,180,10.5,14.5,94,0.59,,,0.59,WUHU216HW,2013-06-15 02:43:00,
2013-06-14 21:44:00,69.5,67.7,30.02,South,180,10.5,14.5,94,0.59,,,0.59,WUHU216HW,2013-06-15 02:44:00,
2013-06-14 21:45:00,69.5,67.7,30.02,SSE,158,12.1,13.4,94,0.59,,,0.59,WUHU216HW,2013-06-15 02:45:00,
2013-06-14 21:47:00,69.5,67.7,30.01,SE,135,9.6,13.4,94,0.59,,,0.59,WUHU216HW,2013-06-15 02:47:00,
2013-06-14 21:48:00,69.5,67.7,30.01,SSE,158,10.5,13.4,94,0.59,,,0.59,WUHU216HW,2013-06-15 02:48:00,
2013-06-14 21:49:00,69.5,67.7,30.01,SE,135,9.6,13.4,94,0.59,,,0.59,WUHU216HW,2013-06-15 02:49:00,
2013-06-14 21:50:00,69.5,67.7,30.01,SSE,158,9.6,13.4,94,0.59,,,0.59,WUHU216HW,2013-06-15 02:50:00,
2013-06-14 21:52:00,69.5,67.7,30.01,SSE,158,9.4,12.1,94,0.59,,,0.59,WUHU216HW,2013-06-15 02:52:00,
2013-06-14 21:53:00,69.5,67.7,30.00,SSE,158,10.3,12.1,94,0.59,,,0.59,WUHU216HW,2013-06-15 02:53:00,
2013-06-14 21:54:00,69.5,67.7,30.00,SE,135,11.2,12.1,94,0.59,,,0.59,WUHU216HW,2013-06-15 02:54:00,
2013-06-14 21:55:00,69.5,67.7,30.00,SE,135,7.4,11.2,94,0.59,,,0.59,WUHU216HW,2013-06-15 02:55:00,
2013-06-14 21:56:00,69.5,67.7,30.00,SE,135,8.7,11.2,94,0.59,,,0.59,WUHU216HW,2013-06-15 02:56:00,
2013-06-14 21:57:00,69.5,67.7,30.00,SSE,158,10.1,11.2,94,0.59,,,0.59,WUHU216HW,2013-06-15 02:57:00,
2013-06-14 21:58:00,69.5,67.7,30.00,SE,135,7.8,11.2,94,0.59,,,0.59,WUHU216HW,2013-06-15 02:58:00,
2013-06-14 22:00:00,69.5,67.7,30.00,SSE,158,7.4,11.2,94,0.59,,,0.59,WUHU216HW,2013-06-15 03:00:00,
2013-06-14 22:01:00,69.5,67.7,30.00,SSE,158,7.4,11.2,94,0.59,,,0.59,WUHU216HW,2013-06-15 03:01:00,
2013-06-14 22:03:00,69.5,67.7,30.00,SSE,158,8.5,11.2,94,0.00,,,0.59,WUHU216HW,2013-06-15 03:03:00,
2013-06-14 22:04:00,69.5,67.7,30.01,SSE,158,10.5,10.5,94,0.00,,,0.59,WUHU216HW,2013-06-15 03:04:00,
2013-06-14 22:06:00,69.5,67.7,30.01,South,180,4.0,10.5,94,0.00,,,0.59,WUHU216HW,2013-06-15 03:06:00,
2013-06-14 22:07:00,69.5,67.7,30.02,SSW,203,4.3,10.5,94,0.00,,,0.59,WUHU216HW,2013-06-15 03:07:00,
2013-06-14 22:08:00,69.5,67.7,30.02,South,180,6.0,10.5,94,0.00,,,0.59,WUHU216HW,2013-06-15 03:08:00,
2013-06-14 22:09:00,69.5,67.7,30.01,South,180,5.1,10.5,94,0.00,,,0.59,WUHU216HW,2013-06-15 03:09:00,
2013-06-14 22:10:00,69.5,67.7,30.01,SSW,203,6.0,10.5,94,0.00,,,0.59,WUHU216HW,2013-06-15 03:10:00,
2013-06-14 22:12:00,69.5,67.7,30.01,SSW,203,6.0,10.5,94,0.00,,,0.59,WUHU216HW,2013-06-15 03:12:00,
2013-06-14 22:13:00,69.5,67.7,30.01,SSW,203,6.0,10.5,94,0.00,,,0.59,WUHU216HW,2013-06-15 03:13:00,
2013-06-14 22:15:00,69.5,67.7,30.01,ESE,113,7.6,8.3,94,0.00,,,0.59,WUHU216HW,2013-06-15 03:15:00,
2013-06-14 22:16:00,69.5,67.7,30.01,ESE,113,6.7,8.3,94,0.00,,,0.59,WUHU216HW,2013-06-15 03:16:00,
2013-06-14 22:17:00,69.5,67.7,30.01,SE,135,8.1,8.3,94,0.00,,,0.59,WUHU216HW,2013-06-15 03:17:00,
2013-06-14 22:18:00,69.5,67.3,30.00,SE,135,6.9,8.3,93,0.00,,,0.59,WUHU216HW,2013-06-15 03:18:00,
2013-06-14 22:19:00,69.5,67.3,30.00,SE,135,6.9,8.3,93,0.00,,,0.59,WUHU216HW,2013-06-15 03:19:00,
2013-06-14 22:21:00,69.5,67.3,30.00,SE,135,6.9,8.3,93,0.00,,,0.59,WUHU216HW,2013-06-15 03:21:00,
2013-06-14 22:22:00,69.5,67.3,30.00,ESE,113,4.0,8.3,93,0.00,,,0.59,WUHU216HW,2013-06-15 03:22:00,
2013-06-14 22:23:00,69.5,67.3,30.00,SE,135,3.6,8.3,93,0.00,,,0.59,WUHU216HW,2013-06-15 03:23:00,
2013-06-14 22:24:00,69.5,67.3,30.00,ESE,113,4.7,8.1,93,0.00,,,0.59,WUHU216HW,2013-06-15 03:24:00,
2013-06-14 22:25:00,69.5,67.3,30.00,East,90,6.7,8.1,93,0.00,,,0.59,WUHU216HW,2013-06-15 03:25:00,
2013-06-14 22:27:00,69.5,67.3,30.00,ENE,68,3.4,6.9,93,0.00,,,0.59,WUHU216HW,2013-06-15 03:27:00,
2013-06-14 22:28:00,69.5,67.3,30.00,ESE,113,5.4,6.9,93,0.00,,,0.59,WUHU216HW,2013-06-15 03:28:00,
2013-06-14 22:29:00,69.5,67.3,30.01,ESE,113,4.0,6.9,93,0.00,,,0.59,WUHU216HW,2013-06-15 03:29:00,
2013-06-14 22:30:00,69.5,67.3,30.01,SE,135,4.0,6.9,93,0.00,,,0.59,WUHU216HW,2013-06-15 03:30:00,
2013-06-14 22:31:00,69.5,67.3,30.01,SE,135,3.6,6.9,93,0.00,,,0.59,WUHU216HW,2013-06-15 03:31:00,
2013-06-14 22:33:00,69.5,67.3,30.01,SE,135,3.6,6.9,93,0.00,,,0.59,WUHU216HW,2013-06-15 03:33:00,
2013-06-14 22:34:00,69.5,67.3,30.01,SE,135,3.6,6.9,93,0.00,,,0.59,WUHU216HW,2013-06-15 03:34:00,
2013-06-14 22:35:00,69.5,67.3,30.01,ENE,68,0.4,6.9,93,0.00,,,0.59,WUHU216HW,2013-06-15 03:35:00,
2013-06-14 22:36:00,69.5,67.3,30.01,ENE,68,2.5,5.4,93,0.00,,,0.59,WUHU216HW,2013-06-15 03:36:00,
2013-06-14 22:37:00,69.5,67.3,30.02,ENE,68,1.8,5.4,93,0.00,,,0.59,WUHU216HW,2013-06-15 03:37:00,
2013-06-14 22:38:00,69.5,67.3,30.02,North,0,2.2,4.0,93,0.00,,,0.59,WUHU216HW,2013-06-15 03:38:00,
2013-06-14 22:39:00,69.5,67.3,30.02,NNE,23,1.8,4.0,93,0.00,,,0.59,WUHU216HW,2013-06-15 03:39:00,
2013-06-14 22:40:00,69.5,67.3,30.02,NNW,338,1.8,3.6,93,0.00,,,0.59,WUHU216HW,2013-06-15 03:40:00,
2013-06-14 22:41:00,69.5,67.3,30.02,North,0,0.9,3.6,93,0.00,,,0.59,WUHU216HW,2013-06-15 03:41:00,
2013-06-14 22:43:00,69.5,67.3,30.02,NE,45,1.8,3.6,93,0.00,,,0.59,WUHU216HW,2013-06-15 03:43:00,
2013-06-14 22:44:00,69.5,67.3,30.02,NE,45,1.8,2.5,93,0.00,,,0.59,WUHU216HW,2013-06-15 03:44:00,
2013-06-14 22:45:00,69.5,67.3,30.02,NNE,23,2.2,2.5,93,0.00,,,0.59,WUHU216HW,2013-06-15 03:45:00,
2013-06-14 22:46:00,69.5,67.3,30.02,ENE,68,1.3,2.2,93,0.00,,,0.59,WUHU216HW,2013-06-15 03:46:00,
2013-06-14 22:47:00,69.5,67.3,30.02,ENE,68,1.3,2.2,93,0.00,,,0.59,WUHU216HW,2013-06-15 03:47:00,
2013-06-14 22:48:00,69.5,67.3,30.02,East,90,1.8,2.2,93,0.00,,,0.59,WUHU216HW,2013-06-15 03:48:00,
2013-06-14 22:49:00,69.5,67.3,30.02,ESE,113,1.1,2.2,93,0.00,,,0.59,WUHU216HW,2013-06-15 03:49:00,
2013-06-14 22:50:00,69.5,67.3,30.02,ESE,113,0.9,2.2,93,0.00,,,0.59,WUHU216HW,2013-06-15 03:50:00,
2013-06-14 22:51:00,69.5,67.3,30.02,ESE,113,0.9,2.2,93,0.00,,,0.59,WUHU216HW,2013-06-15 03:51:00,
2013-06-14 22:52:00,69.5,67.3,30.02,East,90,1.3,2.2,93,0.00,,,0.59,WUHU216HW,2013-06-15 03:52:00,
2013-06-14 22:54:00,69.5,67.7,30.01,ESE,113,3.1,3.1,94,0.00,,,0.59,WUHU216HW,2013-06-15 03:54:00,
2013-06-14 22:55:00,69.5,67.7,30.01,East,90,2.2,3.1,94,0.00,,,0.59,WUHU216HW,2013-06-15 03:55:00,
2013-06-14 22:56:00,69.5,67.7,30.01,ESE,113,1.8,3.1,94,0.00,,,0.59,WUHU216HW,2013-06-15 03:56:00,
2013-06-14 22:57:00,69.5,67.7,30.01,East,90,4.0,4.0,94,0.00,,,0.59,WUHU216HW,2013-06-15 03:57:00,
2013-06-14 22:58:00,69.5,67.7,30.00,ENE,68,3.1,4.0,94,0.01,,,0.60,WUHU216HW,2013-06-15 03:58:00,
2013-06-14 23:00:00,69.5,67.7,30.00,ESE,113,4.0,4.0,94,0.01,,,0.60,WUHU216HW,2013-06-15 04:00:00,
2013-06-14 23:01:00,69.5,67.7,30.00,East,90,2.5,4.0,94,0.01,,,0.60,WUHU216HW,2013-06-15 04:01:00,
2013-06-14 23:02:00,69.5,67.7,30.00,East,90,3.4,4.0,94,0.02,,,0.61,WUHU216HW,2013-06-15 04:02:00,
2013-06-14 23:03:00,69.5,67.7,30.00,SE,135,1.8,4.0,94,0.02,,,0.61,WUHU216HW,2013-06-15 04:03:00,
2013-06-14 23:04:00,69.5,67.7,30.00,ESE,113,2.5,4.0,94,0.02,,,0.61,WUHU216HW,2013-06-15 04:04:00,
2013-06-14 23:06:00,69.5,67.7,30.00,ESE,113,2.9,4.0,94,0.02,,,0.61,WUHU216HW,2013-06-15 04:06:00,
2013-06-14 23:07:00,69.5,67.7,30.00,SE,135,3.8,4.0,94,0.02,,,0.61,WUHU216HW,2013-06-15 04:07:00,
2013-06-14 23:08:00,69.5,67.7,30.00,ESE,113,4.3,4.3,94,0.02,,,0.61,WUHU216HW,2013-06-15 04:08:00,
2013-06-14 23:10:00,69.5,67.7,29.99,ESE,113,4.0,4.3,94,0.02,,,0.61,WUHU216HW,2013-06-15 04:10:00,
2013-06-14 23:11:00,69.5,67.7,29.99,ESE,113,4.0,4.3,94,0.02,,,0.61,WUHU216HW,2013-06-15 04:11:00,
2013-06-14 23:12:00,69.5,67.7,29.99,SE,135,4.0,4.3,94,0.02,,,0.61,WUHU216HW,2013-06-15 04:12:00,
2013-06-14 23:13:00,69.5,67.7,29.99,SE,135,4.7,4.7,94,0.02,,,0.61,WUHU216HW,2013-06-15 04:13:00,
2013-06-14 23:15:00,69.5,67.7,29.99,SE,135,6.3,6.3,94,0.02,,,0.61,WUHU216HW,2013-06-15 04:15:00,
2013-06-14 23:16:00,69.5,67.7,29.99,SE,135,6.3,6.3,94,0.02,,,0.61,WUHU216HW,2013-06-15 04:16:00,
2013-06-14 23:17:00,69.5,67.7,29.99,SE,135,6.3,6.3,94,0.02,,,0.61,WUHU216HW,2013-06-15 04:17:00,
2013-06-14 23:19:00,69.5,67.7,29.99,SSE,158,4.7,6.3,94,0.02,,,0.61,WUHU216HW,2013-06-15 04:19:00,
2013-06-14 23:20:00,69.5,67.7,29.99,SSE,158,4.7,6.3,94,0.02,,,0.61,WUHU216HW,2013-06-15 04:20:00,
2013-06-14 23:21:00,69.5,67.7,29.99,SSE,158,4.7,6.3,94,0.02,,,0.61,WUHU216HW,2013-06-15 04:21:00,
2013-06-14 23:23:00,69.5,67.7,29.99,SSE,158,2.0,6.3,94,0.02,,,0.61,WUHU216HW,2013-06-15 04:23:00,
2013-06-14 23:24:00,69.5,67.7,29.99,SSE,158,3.4,6.3,94,0.02,,,0.61,WUHU216HW,2013-06-15 04:24:00,
2013-06-14 23:25:00,69.5,67.7,29.99,South,180,2.7,6.3,94,0.02,,,0.61,WUHU216HW,2013-06-15 04:25:00,
2013-06-14 23:26:00,69.5,67.7,29.99,SSW,203,2.9,6.3,94,0.02,,,0.61,WUHU216HW,2013-06-15 04:26:00,
2013-06-14 23:28:00,69.5,67.7,29.99,South,180,1.8,4.7,94,0.02,,,0.61,WUHU216HW,2013-06-15 04:28:00,
2013-06-14 23:29:00,69.5,67.7,29.99,South,180,1.8,4.7,94,0.02,,,0.61,WUHU216HW,2013-06-15 04:29:00,
2013-06-14 23:31:00,69.5,67.7,29.98,South,180,1.8,4.7,94,0.02,,,0.61,WUHU216HW,2013-06-15 04:31:00,
2013-06-14 23:32:00,69.5,67.7,29.98,SE,135,2.0,3.4,94,0.02,,,0.61,WUHU216HW,2013-06-15 04:32:00,
2013-06-14 23:33:00,69.5,67.7,29.98,SE,135,1.8,3.4,94,0.02,,,0.61,WUHU216HW,2013-06-15 04:33:00,
2013-06-14 23:35:00,69.5,67.7,29.98,SE,135,3.8,3.8,94,0.02,,,0.61,WUHU216HW,2013-06-15 04:35:00,
2013-06-14 23:36:00,69.5,67.7,29.98,SE,135,2.7,3.8,94,0.02,,,0.61,WUHU216HW,2013-06-15 04:36:00,
2013-06-14 23:38:00,69.5,67.7,29.97,East,90,4.3,4.3,94,0.02,,,0.61,WUHU216HW,2013-06-15 04:38:00,
2013-06-14 23:39:00,69.5,67.7,29.97,ESE,113,3.8,4.3,94,0.02,,,0.61,WUHU216HW,2013-06-15 04:39:00,
2013-06-14 23:40:00,69.5,67.7,29.97,ESE,113,3.1,4.3,94,0.02,,,0.61,WUHU216HW,2013-06-15 04:40:00,
2013-06-14 23:42:00,69.3,67.5,29.97,SE,135,2.7,4.3,94,0.02,,,0.61,WUHU216HW,2013-06-15 04:42:00,
2013-06-14 23:43:00,69.3,67.5,29.97,SE,135,2.9,4.3,94,0.02,,,0.61,WUHU216HW,2013-06-15 04:43:00,
2013-06-14 23:44:00,69.3,67.5,29.97,SSE,158,3.4,4.3,94,0.02,,,0.61,WUHU216HW,2013-06-15 04:44:00,
2013-06-14 23:46:00,69.3,67.5,29.97,SSE,158,4.5,4.5,94,0.02,,,0.61,WUHU216HW,2013-06-15 04:46:00,
2013-06-14 23:47:00,69.5,67.7,29.97,SSE,158,3.8,4.5,94,0.02,,,0.61,WUHU216HW,2013-06-15 04:47:00,
2013-06-14 23:48:00,69.5,67.7,29.97,SSE,158,4.7,4.7,94,0.02,,,0.61,WUHU216HW,2013-06-15 04:48:00,
2013-06-14 23:50:00,69.5,67.7,29.97,SSE,158,4.5,4.7,94,0.02,,,0.61,WUHU216HW,2013-06-15 04:50:00,
2013-06-14 23:51:00,69.5,67.7,29.97,SSE,158,4.5,4.7,94,0.02,,,0.61,WUHU216HW,2013-06-15 04:51:00,
2013-06-14 23:52:00,69.5,67.7,29.97,SSE,158,4.5,4.7,94,0.02,,,0.61,WUHU216HW,2013-06-15 04:52:00,
2013-06-14 23:53:00,69.5,67.7,29.98,SSE,158,4.5,4.7,94,0.02,,,0.61,WUHU216HW,2013-06-15 04:53:00,
2013-06-14 23:54:00,69.5,67.7,29.98,SSE,158,4.0,4.7,94,0.02,,,0.61,WUHU216HW,2013-06-15 04:54:00,
2013-06-14 23:55:00,69.5,67.7,29.97,SSE,158,3.4,4.7,94,0.02,,,0.61,WUHU216HW,2013-06-15 04:55:00,
2013-06-14 23:57:00,69.5,67.7,29.98,SSE,158,6.3,6.3,94,0.01,,,0.61,WUHU216HW,2013-06-15 04:57:00,
2013-06-14 23:58:00,69.5,67.7,29.98,SSE,158,4.9,6.3,94,0.01,,,0.61,WUHU216HW,2013-06-15 04:58:00,